<?xml version="1.0" encoding="UTF-8" standalone="no" ?>
<gpx xmlns="http://www.topografix.com/GPX/1/1" xmlns:xsi="http://www.w3.org/2001/XMLSchema-instance" xsi:schemaLocation="http://www.topografix.com/GPX/1/1 http://www.topografix.com/GPX/1/1/gpx.xsd" version="1.1" creator="VisuGPX - https://www.visugpx.com">
  <metadata>
    <name>Lilion et balcon Dore</name>
  </metadata>
  <trk>
    <name><![CDATA[Lilion et balcon Dore_1]]></name>
    <trkseg>
      <trkpt lat="45.75338" lon="3.53764">
        <ele>329.1</ele>
        <time>2018-01-14T06:48:34Z</time>
      </trkpt>
      <trkpt lat="45.75324" lon="3.53759">
        <ele>326.1</ele>
        <time>2018-01-14T06:49:34Z</time>
      </trkpt>
      <trkpt lat="45.75308" lon="3.53755">
        <ele>324.2</ele>
        <time>2018-01-14T06:50:34Z</time>
      </trkpt>
      <trkpt lat="45.75298" lon="3.53759">
        <ele>323</ele>
        <time>2018-01-14T06:51:34Z</time>
      </trkpt>
      <trkpt lat="45.75294" lon="3.53769">
        <ele>322.4</ele>
        <time>2018-01-14T06:52:34Z</time>
      </trkpt>
      <trkpt lat="45.75298" lon="3.53786">
        <ele>322.4</ele>
        <time>2018-01-14T06:53:34Z</time>
      </trkpt>
      <trkpt lat="45.75308" lon="3.53806">
        <ele>322.6</ele>
        <time>2018-01-14T06:54:34Z</time>
      </trkpt>
      <trkpt lat="45.75327" lon="3.53832">
        <ele>323.6</ele>
        <time>2018-01-14T06:55:34Z</time>
      </trkpt>
      <trkpt lat="45.75345" lon="3.53856">
        <ele>324.3</ele>
        <time>2018-01-14T06:56:34Z</time>
      </trkpt>
      <trkpt lat="45.7534" lon="3.53859">
        <ele>324.1</ele>
        <time>2018-01-14T06:57:34Z</time>
      </trkpt>
      <trkpt lat="45.75329" lon="3.53851">
        <ele>321.4</ele>
        <time>2018-01-14T06:58:34Z</time>
      </trkpt>
      <trkpt lat="45.75311" lon="3.5384">
        <ele>321</ele>
        <time>2018-01-14T06:59:34Z</time>
      </trkpt>
      <trkpt lat="45.75298" lon="3.53839">
        <ele>320.2</ele>
        <time>2018-01-14T07:00:34Z</time>
      </trkpt>
      <trkpt lat="45.75296" lon="3.53854">
        <ele>319.8</ele>
        <time>2018-01-14T07:01:34Z</time>
      </trkpt>
      <trkpt lat="45.75296" lon="3.53866">
        <ele>319.5</ele>
        <time>2018-01-14T07:02:34Z</time>
      </trkpt>
      <trkpt lat="45.75301" lon="3.53888">
        <ele>319</ele>
        <time>2018-01-14T07:03:34Z</time>
      </trkpt>
      <trkpt lat="45.75313" lon="3.53908">
        <ele>318.4</ele>
        <time>2018-01-14T07:04:34Z</time>
      </trkpt>
      <trkpt lat="45.75323" lon="3.53928">
        <ele>316.9</ele>
        <time>2018-01-14T07:05:34Z</time>
      </trkpt>
      <trkpt lat="45.75338" lon="3.53964">
        <ele>319</ele>
        <time>2018-01-14T07:06:34Z</time>
      </trkpt>
      <trkpt lat="45.75355" lon="3.53989">
        <ele>318.8</ele>
        <time>2018-01-14T07:07:34Z</time>
      </trkpt>
      <trkpt lat="45.75367" lon="3.54011">
        <ele>317.4</ele>
        <time>2018-01-14T07:08:34Z</time>
      </trkpt>
      <trkpt lat="45.75377" lon="3.54032">
        <ele>317.4</ele>
        <time>2018-01-14T07:09:34Z</time>
      </trkpt>
      <trkpt lat="45.75393" lon="3.54063">
        <ele>317.2</ele>
        <time>2018-01-14T07:10:34Z</time>
      </trkpt>
      <trkpt lat="45.75406" lon="3.54084">
        <ele>316.7</ele>
        <time>2018-01-14T07:11:34Z</time>
      </trkpt>
      <trkpt lat="45.75425" lon="3.54097">
        <ele>317.6</ele>
        <time>2018-01-14T07:12:34Z</time>
      </trkpt>
      <trkpt lat="45.75439" lon="3.5411">
        <ele>317.9</ele>
        <time>2018-01-14T07:13:34Z</time>
      </trkpt>
      <trkpt lat="45.75462" lon="3.54123">
        <ele>318.3</ele>
        <time>2018-01-14T07:14:34Z</time>
      </trkpt>
      <trkpt lat="45.75475" lon="3.54131">
        <ele>318.5</ele>
        <time>2018-01-14T07:15:34Z</time>
      </trkpt>
      <trkpt lat="45.75494" lon="3.5414">
        <ele>318.9</ele>
        <time>2018-01-14T07:16:34Z</time>
      </trkpt>
      <trkpt lat="45.75511" lon="3.54147">
        <ele>318.8</ele>
        <time>2018-01-14T07:17:34Z</time>
      </trkpt>
      <trkpt lat="45.75518" lon="3.54143">
        <ele>318.6</ele>
        <time>2018-01-14T07:18:34Z</time>
      </trkpt>
      <trkpt lat="45.75523" lon="3.54138">
        <ele>318.4</ele>
        <time>2018-01-14T07:19:34Z</time>
      </trkpt>
      <trkpt lat="45.7553" lon="3.5413">
        <ele>318.2</ele>
        <time>2018-01-14T07:20:34Z</time>
      </trkpt>
      <trkpt lat="45.75533" lon="3.54112">
        <ele>318.1</ele>
        <time>2018-01-14T07:21:34Z</time>
      </trkpt>
      <trkpt lat="45.75534" lon="3.54105">
        <ele>318</ele>
        <time>2018-01-14T07:22:34Z</time>
      </trkpt>
      <trkpt lat="45.75549" lon="3.5409">
        <ele>317.6</ele>
        <time>2018-01-14T07:23:34Z</time>
      </trkpt>
      <trkpt lat="45.75565" lon="3.54074">
        <ele>318.7</ele>
        <time>2018-01-14T07:24:34Z</time>
      </trkpt>
      <trkpt lat="45.75576" lon="3.54066">
        <ele>318.6</ele>
        <time>2018-01-14T07:25:34Z</time>
      </trkpt>
      <trkpt lat="45.75597" lon="3.54091">
        <ele>316.8</ele>
        <time>2018-01-14T07:26:34Z</time>
      </trkpt>
      <trkpt lat="45.75605" lon="3.541">
        <ele>317.2</ele>
        <time>2018-01-14T07:27:34Z</time>
      </trkpt>
      <trkpt lat="45.75608" lon="3.5411">
        <ele>317.4</ele>
        <time>2018-01-14T07:28:34Z</time>
      </trkpt>
      <trkpt lat="45.7561" lon="3.54125">
        <ele>317.5</ele>
        <time>2018-01-14T07:29:34Z</time>
      </trkpt>
      <trkpt lat="45.75613" lon="3.54156">
        <ele>317.6</ele>
        <time>2018-01-14T07:30:34Z</time>
      </trkpt>
      <trkpt lat="45.75616" lon="3.54181">
        <ele>317.2</ele>
        <time>2018-01-14T07:31:34Z</time>
      </trkpt>
      <trkpt lat="45.75623" lon="3.54255">
        <ele>316</ele>
        <time>2018-01-14T07:32:34Z</time>
      </trkpt>
      <trkpt lat="45.75622" lon="3.54283">
        <ele>316</ele>
        <time>2018-01-14T07:33:34Z</time>
      </trkpt>
      <trkpt lat="45.75622" lon="3.54301">
        <ele>316</ele>
        <time>2018-01-14T07:34:34Z</time>
      </trkpt>
      <trkpt lat="45.75622" lon="3.54338">
        <ele>315.2</ele>
        <time>2018-01-14T07:35:34Z</time>
      </trkpt>
      <trkpt lat="45.75629" lon="3.54351">
        <ele>315.1</ele>
        <time>2018-01-14T07:36:34Z</time>
      </trkpt>
      <trkpt lat="45.7564" lon="3.54356">
        <ele>315.2</ele>
        <time>2018-01-14T07:37:34Z</time>
      </trkpt>
      <trkpt lat="45.75691" lon="3.54355">
        <ele>315.9</ele>
        <time>2018-01-14T07:38:34Z</time>
      </trkpt>
      <trkpt lat="45.75703" lon="3.54372">
        <ele>315.5</ele>
        <time>2018-01-14T07:39:34Z</time>
      </trkpt>
      <trkpt lat="45.75715" lon="3.54393">
        <ele>315.3</ele>
        <time>2018-01-14T07:40:34Z</time>
      </trkpt>
      <trkpt lat="45.75716" lon="3.54407">
        <ele>315.1</ele>
        <time>2018-01-14T07:41:34Z</time>
      </trkpt>
      <trkpt lat="45.75708" lon="3.54434">
        <ele>313.8</ele>
        <time>2018-01-14T07:42:34Z</time>
      </trkpt>
      <trkpt lat="45.75699" lon="3.54451">
        <ele>313.7</ele>
        <time>2018-01-14T07:43:34Z</time>
      </trkpt>
      <trkpt lat="45.75692" lon="3.54469">
        <ele>313.6</ele>
        <time>2018-01-14T07:44:34Z</time>
      </trkpt>
      <trkpt lat="45.75697" lon="3.54484">
        <ele>313.6</ele>
        <time>2018-01-14T07:45:34Z</time>
      </trkpt>
      <trkpt lat="45.75704" lon="3.54503">
        <ele>313.6</ele>
        <time>2018-01-14T07:46:34Z</time>
      </trkpt>
      <trkpt lat="45.7572" lon="3.54509">
        <ele>313.7</ele>
        <time>2018-01-14T07:47:34Z</time>
      </trkpt>
      <trkpt lat="45.7578" lon="3.54467">
        <ele>314.2</ele>
        <time>2018-01-14T07:48:34Z</time>
      </trkpt>
      <trkpt lat="45.75842" lon="3.54427">
        <ele>314.4</ele>
        <time>2018-01-14T07:49:34Z</time>
      </trkpt>
      <trkpt lat="45.75864" lon="3.54422">
        <ele>314</ele>
        <time>2018-01-14T07:50:34Z</time>
      </trkpt>
      <trkpt lat="45.75881" lon="3.54434">
        <ele>313.7</ele>
        <time>2018-01-14T07:51:34Z</time>
      </trkpt>
      <trkpt lat="45.7592" lon="3.54469">
        <ele>312.5</ele>
        <time>2018-01-14T07:52:34Z</time>
      </trkpt>
      <trkpt lat="45.75945" lon="3.545">
        <ele>312.3</ele>
        <time>2018-01-14T07:53:34Z</time>
      </trkpt>
      <trkpt lat="45.75951" lon="3.54504">
        <ele>312.1</ele>
        <time>2018-01-14T07:54:34Z</time>
      </trkpt>
      <trkpt lat="45.76002" lon="3.54511">
        <ele>312.5</ele>
        <time>2018-01-14T07:55:34Z</time>
      </trkpt>
      <trkpt lat="45.76109" lon="3.54517">
        <ele>312.8</ele>
        <time>2018-01-14T07:56:34Z</time>
      </trkpt>
      <trkpt lat="45.76163" lon="3.54514">
        <ele>312.3</ele>
        <time>2018-01-14T07:57:34Z</time>
      </trkpt>
      <trkpt lat="45.76182" lon="3.54497">
        <ele>311.5</ele>
        <time>2018-01-14T07:58:34Z</time>
      </trkpt>
      <trkpt lat="45.76231" lon="3.54437">
        <ele>310.9</ele>
        <time>2018-01-14T07:59:34Z</time>
      </trkpt>
      <trkpt lat="45.76259" lon="3.54405">
        <ele>311.2</ele>
        <time>2018-01-14T08:00:34Z</time>
      </trkpt>
      <trkpt lat="45.76277" lon="3.544">
        <ele>311.4</ele>
        <time>2018-01-14T08:01:34Z</time>
      </trkpt>
      <trkpt lat="45.76355" lon="3.54383">
        <ele>312.9</ele>
        <time>2018-01-14T08:02:34Z</time>
      </trkpt>
      <trkpt lat="45.76374" lon="3.54373">
        <ele>313</ele>
        <time>2018-01-14T08:03:34Z</time>
      </trkpt>
      <trkpt lat="45.76377" lon="3.54355">
        <ele>313</ele>
        <time>2018-01-14T08:04:34Z</time>
      </trkpt>
      <trkpt lat="45.76366" lon="3.54216">
        <ele>313</ele>
        <time>2018-01-14T08:05:34Z</time>
      </trkpt>
      <trkpt lat="45.76357" lon="3.5413">
        <ele>313.3</ele>
        <time>2018-01-14T08:06:34Z</time>
      </trkpt>
      <trkpt lat="45.76352" lon="3.54088">
        <ele>313.7</ele>
        <time>2018-01-14T08:07:34Z</time>
      </trkpt>
      <trkpt lat="45.76397" lon="3.54068">
        <ele>314.8</ele>
        <time>2018-01-14T08:08:34Z</time>
      </trkpt>
      <trkpt lat="45.76426" lon="3.54059">
        <ele>314.3</ele>
        <time>2018-01-14T08:09:34Z</time>
      </trkpt>
      <trkpt lat="45.76453" lon="3.54067">
        <ele>314.2</ele>
        <time>2018-01-14T08:10:34Z</time>
      </trkpt>
      <trkpt lat="45.76509" lon="3.54089">
        <ele>313.7</ele>
        <time>2018-01-14T08:11:34Z</time>
      </trkpt>
      <trkpt lat="45.76539" lon="3.54095">
        <ele>313.5</ele>
        <time>2018-01-14T08:12:34Z</time>
      </trkpt>
      <trkpt lat="45.76554" lon="3.54098">
        <ele>313.5</ele>
        <time>2018-01-14T08:13:34Z</time>
      </trkpt>
      <trkpt lat="45.76589" lon="3.54097">
        <ele>313.3</ele>
        <time>2018-01-14T08:14:34Z</time>
      </trkpt>
      <trkpt lat="45.76622" lon="3.54089">
        <ele>312.7</ele>
        <time>2018-01-14T08:15:34Z</time>
      </trkpt>
      <trkpt lat="45.76639" lon="3.54085">
        <ele>312.5</ele>
        <time>2018-01-14T08:16:34Z</time>
      </trkpt>
      <trkpt lat="45.76737" lon="3.54062">
        <ele>310.5</ele>
        <time>2018-01-14T08:17:34Z</time>
      </trkpt>
      <trkpt lat="45.76847" lon="3.54033">
        <ele>308.9</ele>
        <time>2018-01-14T08:18:34Z</time>
      </trkpt>
      <trkpt lat="45.76881" lon="3.5402">
        <ele>308.4</ele>
        <time>2018-01-14T08:19:34Z</time>
      </trkpt>
      <trkpt lat="45.7691" lon="3.53996">
        <ele>307.5</ele>
        <time>2018-01-14T08:20:34Z</time>
      </trkpt>
      <trkpt lat="45.76939" lon="3.5397">
        <ele>307.6</ele>
        <time>2018-01-14T08:21:34Z</time>
      </trkpt>
      <trkpt lat="45.7697" lon="3.53945">
        <ele>307.8</ele>
        <time>2018-01-14T08:22:34Z</time>
      </trkpt>
      <trkpt lat="45.76982" lon="3.53931">
        <ele>307.9</ele>
        <time>2018-01-14T08:23:34Z</time>
      </trkpt>
      <trkpt lat="45.7699" lon="3.53933">
        <ele>307.9</ele>
        <time>2018-01-14T08:24:34Z</time>
      </trkpt>
      <trkpt lat="45.76995" lon="3.53945">
        <ele>307.9</ele>
        <time>2018-01-14T08:25:34Z</time>
      </trkpt>
      <trkpt lat="45.77007" lon="3.53967">
        <ele>307.4</ele>
        <time>2018-01-14T08:26:34Z</time>
      </trkpt>
      <trkpt lat="45.77022" lon="3.53988">
        <ele>307.3</ele>
        <time>2018-01-14T08:27:34Z</time>
      </trkpt>
      <trkpt lat="45.77036" lon="3.53992">
        <ele>307.1</ele>
        <time>2018-01-14T08:28:34Z</time>
      </trkpt>
      <trkpt lat="45.77095" lon="3.54003">
        <ele>306.3</ele>
        <time>2018-01-14T08:29:34Z</time>
      </trkpt>
      <trkpt lat="45.77128" lon="3.54018">
        <ele>306.7</ele>
        <time>2018-01-14T08:30:34Z</time>
      </trkpt>
      <trkpt lat="45.77193" lon="3.54051">
        <ele>306.8</ele>
        <time>2018-01-14T08:31:34Z</time>
      </trkpt>
      <trkpt lat="45.77304" lon="3.54095">
        <ele>307.5</ele>
        <time>2018-01-14T08:32:34Z</time>
      </trkpt>
      <trkpt lat="45.77351" lon="3.54112">
        <ele>307.4</ele>
        <time>2018-01-14T08:33:34Z</time>
      </trkpt>
      <trkpt lat="45.77367" lon="3.54113">
        <ele>307.4</ele>
        <time>2018-01-14T08:34:34Z</time>
      </trkpt>
      <trkpt lat="45.77394" lon="3.54104">
        <ele>307.4</ele>
        <time>2018-01-14T08:35:34Z</time>
      </trkpt>
      <trkpt lat="45.77497" lon="3.54066">
        <ele>308.3</ele>
        <time>2018-01-14T08:36:34Z</time>
      </trkpt>
      <trkpt lat="45.77569" lon="3.54037">
        <ele>307.5</ele>
        <time>2018-01-14T08:37:34Z</time>
      </trkpt>
      <trkpt lat="45.77668" lon="3.53973">
        <ele>306.4</ele>
        <time>2018-01-14T08:38:34Z</time>
      </trkpt>
      <trkpt lat="45.7771" lon="3.53953">
        <ele>306</ele>
        <time>2018-01-14T08:39:34Z</time>
      </trkpt>
      <trkpt lat="45.77764" lon="3.5393">
        <ele>305.3</ele>
        <time>2018-01-14T08:40:34Z</time>
      </trkpt>
      <trkpt lat="45.77808" lon="3.53915">
        <ele>305.1</ele>
        <time>2018-01-14T08:41:34Z</time>
      </trkpt>
      <trkpt lat="45.77851" lon="3.53904">
        <ele>305.3</ele>
        <time>2018-01-14T08:42:34Z</time>
      </trkpt>
      <trkpt lat="45.77876" lon="3.53889">
        <ele>305.4</ele>
        <time>2018-01-14T08:43:34Z</time>
      </trkpt>
      <trkpt lat="45.77904" lon="3.53865">
        <ele>305.6</ele>
        <time>2018-01-14T08:44:34Z</time>
      </trkpt>
      <trkpt lat="45.7792" lon="3.53862">
        <ele>306.1</ele>
        <time>2018-01-14T08:45:34Z</time>
      </trkpt>
      <trkpt lat="45.77941" lon="3.53872">
        <ele>306.1</ele>
        <time>2018-01-14T08:46:34Z</time>
      </trkpt>
      <trkpt lat="45.77963" lon="3.53893">
        <ele>306.3</ele>
        <time>2018-01-14T08:47:34Z</time>
      </trkpt>
      <trkpt lat="45.78005" lon="3.53937">
        <ele>306.2</ele>
        <time>2018-01-14T08:48:34Z</time>
      </trkpt>
      <trkpt lat="45.78056" lon="3.53984">
        <ele>305.4</ele>
        <time>2018-01-14T08:49:34Z</time>
      </trkpt>
      <trkpt lat="45.78082" lon="3.54002">
        <ele>305.1</ele>
        <time>2018-01-14T08:50:34Z</time>
      </trkpt>
      <trkpt lat="45.78099" lon="3.54013">
        <ele>305</ele>
        <time>2018-01-14T08:51:34Z</time>
      </trkpt>
      <trkpt lat="45.78122" lon="3.54012">
        <ele>305.1</ele>
        <time>2018-01-14T08:52:34Z</time>
      </trkpt>
      <trkpt lat="45.78169" lon="3.5399">
        <ele>305.6</ele>
        <time>2018-01-14T08:53:34Z</time>
      </trkpt>
      <trkpt lat="45.78222" lon="3.53967">
        <ele>305</ele>
        <time>2018-01-14T08:54:34Z</time>
      </trkpt>
      <trkpt lat="45.78272" lon="3.53945">
        <ele>305.8</ele>
        <time>2018-01-14T08:55:34Z</time>
      </trkpt>
      <trkpt lat="45.78296" lon="3.53942">
        <ele>306.1</ele>
        <time>2018-01-14T08:56:34Z</time>
      </trkpt>
      <trkpt lat="45.78313" lon="3.53939">
        <ele>306.3</ele>
        <time>2018-01-14T08:57:34Z</time>
      </trkpt>
      <trkpt lat="45.78323" lon="3.53934">
        <ele>306.5</ele>
        <time>2018-01-14T08:58:34Z</time>
      </trkpt>
      <trkpt lat="45.78331" lon="3.53936">
        <ele>306.5</ele>
        <time>2018-01-14T08:59:34Z</time>
      </trkpt>
      <trkpt lat="45.78338" lon="3.53938">
        <ele>307</ele>
        <time>2018-01-14T09:00:34Z</time>
      </trkpt>
      <trkpt lat="45.78355" lon="3.5395">
        <ele>307</ele>
        <time>2018-01-14T09:01:34Z</time>
      </trkpt>
      <trkpt lat="45.78376" lon="3.53956">
        <ele>307</ele>
        <time>2018-01-14T09:02:34Z</time>
      </trkpt>
      <trkpt lat="45.78446" lon="3.53961">
        <ele>305.3</ele>
        <time>2018-01-14T09:03:34Z</time>
      </trkpt>
      <trkpt lat="45.78472" lon="3.53943">
        <ele>304.6</ele>
        <time>2018-01-14T09:04:34Z</time>
      </trkpt>
      <trkpt lat="45.78491" lon="3.53932">
        <ele>304</ele>
        <time>2018-01-14T09:05:34Z</time>
      </trkpt>
      <trkpt lat="45.78514" lon="3.53897">
        <ele>303.2</ele>
        <time>2018-01-14T09:06:34Z</time>
      </trkpt>
      <trkpt lat="45.78533" lon="3.53869">
        <ele>303.4</ele>
        <time>2018-01-14T09:07:34Z</time>
      </trkpt>
      <trkpt lat="45.78558" lon="3.53839">
        <ele>303.3</ele>
        <time>2018-01-14T09:08:34Z</time>
      </trkpt>
      <trkpt lat="45.78589" lon="3.53799">
        <ele>304.5</ele>
        <time>2018-01-14T09:09:34Z</time>
      </trkpt>
      <trkpt lat="45.78602" lon="3.53788">
        <ele>304.8</ele>
        <time>2018-01-14T09:10:34Z</time>
      </trkpt>
      <trkpt lat="45.78617" lon="3.53779">
        <ele>304.9</ele>
        <time>2018-01-14T09:11:34Z</time>
      </trkpt>
      <trkpt lat="45.78647" lon="3.5377">
        <ele>305.2</ele>
        <time>2018-01-14T09:12:34Z</time>
      </trkpt>
      <trkpt lat="45.7866" lon="3.5376">
        <ele>305.5</ele>
        <time>2018-01-14T09:13:34Z</time>
      </trkpt>
      <trkpt lat="45.78667" lon="3.53742">
        <ele>305.5</ele>
        <time>2018-01-14T09:14:34Z</time>
      </trkpt>
      <trkpt lat="45.78675" lon="3.53721">
        <ele>304.8</ele>
        <time>2018-01-14T09:15:34Z</time>
      </trkpt>
      <trkpt lat="45.787" lon="3.5357">
        <ele>304.4</ele>
        <time>2018-01-14T09:16:34Z</time>
      </trkpt>
      <trkpt lat="45.78715" lon="3.53473">
        <ele>305.2</ele>
        <time>2018-01-14T09:17:34Z</time>
      </trkpt>
      <trkpt lat="45.78723" lon="3.53461">
        <ele>305.3</ele>
        <time>2018-01-14T09:18:34Z</time>
      </trkpt>
      <trkpt lat="45.78738" lon="3.53453">
        <ele>305.3</ele>
        <time>2018-01-14T09:19:34Z</time>
      </trkpt>
      <trkpt lat="45.78787" lon="3.5343">
        <ele>303.7</ele>
        <time>2018-01-14T09:20:34Z</time>
      </trkpt>
      <trkpt lat="45.78835" lon="3.53406">
        <ele>303.6</ele>
        <time>2018-01-14T09:21:34Z</time>
      </trkpt>
      <trkpt lat="45.78871" lon="3.5339">
        <ele>304.5</ele>
        <time>2018-01-14T09:22:34Z</time>
      </trkpt>
      <trkpt lat="45.78901" lon="3.53379">
        <ele>304.8</ele>
        <time>2018-01-14T09:23:34Z</time>
      </trkpt>
      <trkpt lat="45.78905" lon="3.53367">
        <ele>305</ele>
        <time>2018-01-14T09:24:34Z</time>
      </trkpt>
      <trkpt lat="45.78913" lon="3.53322">
        <ele>306.2</ele>
        <time>2018-01-14T09:25:34Z</time>
      </trkpt>
      <trkpt lat="45.78922" lon="3.53264">
        <ele>306</ele>
        <time>2018-01-14T09:26:34Z</time>
      </trkpt>
      <trkpt lat="45.7893" lon="3.5323">
        <ele>305.3</ele>
        <time>2018-01-14T09:27:34Z</time>
      </trkpt>
      <trkpt lat="45.78946" lon="3.53183">
        <ele>304.3</ele>
        <time>2018-01-14T09:28:34Z</time>
      </trkpt>
      <trkpt lat="45.78979" lon="3.53114">
        <ele>302.9</ele>
        <time>2018-01-14T09:29:34Z</time>
      </trkpt>
      <trkpt lat="45.79001" lon="3.53066">
        <ele>302.4</ele>
        <time>2018-01-14T09:30:34Z</time>
      </trkpt>
      <trkpt lat="45.79014" lon="3.53034">
        <ele>302.9</ele>
        <time>2018-01-14T09:31:34Z</time>
      </trkpt>
      <trkpt lat="45.79018" lon="3.53021">
        <ele>303.1</ele>
        <time>2018-01-14T09:32:34Z</time>
      </trkpt>
      <trkpt lat="45.79008" lon="3.52997">
        <ele>304</ele>
        <time>2018-01-14T09:33:34Z</time>
      </trkpt>
      <trkpt lat="45.79003" lon="3.5298">
        <ele>304</ele>
        <time>2018-01-14T09:34:34Z</time>
      </trkpt>
      <trkpt lat="45.79" lon="3.52962">
        <ele>304.8</ele>
        <time>2018-01-14T09:35:34Z</time>
      </trkpt>
      <trkpt lat="45.78998" lon="3.52944">
        <ele>305.1</ele>
        <time>2018-01-14T09:36:34Z</time>
      </trkpt>
      <trkpt lat="45.78991" lon="3.52914">
        <ele>305.7</ele>
        <time>2018-01-14T09:37:34Z</time>
      </trkpt>
      <trkpt lat="45.78981" lon="3.52878">
        <ele>305.1</ele>
        <time>2018-01-14T09:38:34Z</time>
      </trkpt>
      <trkpt lat="45.78977" lon="3.52857">
        <ele>305.1</ele>
        <time>2018-01-14T09:39:34Z</time>
      </trkpt>
      <trkpt lat="45.7897" lon="3.52833">
        <ele>305.3</ele>
        <time>2018-01-14T09:40:34Z</time>
      </trkpt>
      <trkpt lat="45.78959" lon="3.52797">
        <ele>305.5</ele>
        <time>2018-01-14T09:41:34Z</time>
      </trkpt>
      <trkpt lat="45.78944" lon="3.52743">
        <ele>306.3</ele>
        <time>2018-01-14T09:42:34Z</time>
      </trkpt>
      <trkpt lat="45.78925" lon="3.52683">
        <ele>307.2</ele>
        <time>2018-01-14T09:43:34Z</time>
      </trkpt>
      <trkpt lat="45.78916" lon="3.52658">
        <ele>308.8</ele>
        <time>2018-01-14T09:44:34Z</time>
      </trkpt>
      <trkpt lat="45.78907" lon="3.52647">
        <ele>309.7</ele>
        <time>2018-01-14T09:45:34Z</time>
      </trkpt>
      <trkpt lat="45.78899" lon="3.52641">
        <ele>310.1</ele>
        <time>2018-01-14T09:46:34Z</time>
      </trkpt>
      <trkpt lat="45.78874" lon="3.52631">
        <ele>311</ele>
        <time>2018-01-14T09:47:34Z</time>
      </trkpt>
      <trkpt lat="45.78851" lon="3.52618">
        <ele>311.8</ele>
        <time>2018-01-14T09:48:34Z</time>
      </trkpt>
      <trkpt lat="45.78833" lon="3.52601">
        <ele>315</ele>
        <time>2018-01-14T09:49:34Z</time>
      </trkpt>
      <trkpt lat="45.78817" lon="3.52589">
        <ele>315.2</ele>
        <time>2018-01-14T09:50:34Z</time>
      </trkpt>
      <trkpt lat="45.78798" lon="3.52586">
        <ele>315.5</ele>
        <time>2018-01-14T09:51:34Z</time>
      </trkpt>
      <trkpt lat="45.78779" lon="3.52585">
        <ele>316.1</ele>
        <time>2018-01-14T09:52:34Z</time>
      </trkpt>
      <trkpt lat="45.78766" lon="3.52591">
        <ele>316.6</ele>
        <time>2018-01-14T09:53:34Z</time>
      </trkpt>
      <trkpt lat="45.78753" lon="3.52604">
        <ele>316.5</ele>
        <time>2018-01-14T09:54:34Z</time>
      </trkpt>
      <trkpt lat="45.78732" lon="3.52621">
        <ele>318.2</ele>
        <time>2018-01-14T09:55:34Z</time>
      </trkpt>
      <trkpt lat="45.78701" lon="3.52642">
        <ele>318.4</ele>
        <time>2018-01-14T09:56:34Z</time>
      </trkpt>
      <trkpt lat="45.78681" lon="3.52654">
        <ele>318.7</ele>
        <time>2018-01-14T09:57:34Z</time>
      </trkpt>
      <trkpt lat="45.78666" lon="3.52661">
        <ele>319.8</ele>
        <time>2018-01-14T09:58:34Z</time>
      </trkpt>
      <trkpt lat="45.7865" lon="3.5267">
        <ele>320.1</ele>
        <time>2018-01-14T09:59:34Z</time>
      </trkpt>
      <trkpt lat="45.78642" lon="3.52674">
        <ele>320.5</ele>
        <time>2018-01-14T10:00:34Z</time>
      </trkpt>
      <trkpt lat="45.78634" lon="3.52673">
        <ele>320.9</ele>
        <time>2018-01-14T10:01:34Z</time>
      </trkpt>
      <trkpt lat="45.78627" lon="3.52656">
        <ele>322.4</ele>
        <time>2018-01-14T10:02:34Z</time>
      </trkpt>
      <trkpt lat="45.78583" lon="3.52526">
        <ele>329</ele>
        <time>2018-01-14T10:03:34Z</time>
      </trkpt>
      <trkpt lat="45.78556" lon="3.5244">
        <ele>335.9</ele>
        <time>2018-01-14T10:04:34Z</time>
      </trkpt>
      <trkpt lat="45.78549" lon="3.52415">
        <ele>341.1</ele>
        <time>2018-01-14T10:05:34Z</time>
      </trkpt>
      <trkpt lat="45.78541" lon="3.524">
        <ele>341.2</ele>
        <time>2018-01-14T10:06:34Z</time>
      </trkpt>
      <trkpt lat="45.7854" lon="3.52388">
        <ele>341.5</ele>
        <time>2018-01-14T10:07:34Z</time>
      </trkpt>
      <trkpt lat="45.78546" lon="3.52373">
        <ele>342.1</ele>
        <time>2018-01-14T10:08:34Z</time>
      </trkpt>
      <trkpt lat="45.78556" lon="3.52361">
        <ele>342.8</ele>
        <time>2018-01-14T10:09:34Z</time>
      </trkpt>
      <trkpt lat="45.78565" lon="3.52348">
        <ele>343.6</ele>
        <time>2018-01-14T10:10:34Z</time>
      </trkpt>
      <trkpt lat="45.78569" lon="3.52331">
        <ele>347.6</ele>
        <time>2018-01-14T10:11:34Z</time>
      </trkpt>
      <trkpt lat="45.78586" lon="3.52313">
        <ele>348</ele>
        <time>2018-01-14T10:12:34Z</time>
      </trkpt>
      <trkpt lat="45.78598" lon="3.52295">
        <ele>349.3</ele>
        <time>2018-01-14T10:13:34Z</time>
      </trkpt>
      <trkpt lat="45.78608" lon="3.52273">
        <ele>350.7</ele>
        <time>2018-01-14T10:14:34Z</time>
      </trkpt>
      <trkpt lat="45.78614" lon="3.52258">
        <ele>351.1</ele>
        <time>2018-01-14T10:15:34Z</time>
      </trkpt>
      <trkpt lat="45.78613" lon="3.52245">
        <ele>354.9</ele>
        <time>2018-01-14T10:16:34Z</time>
      </trkpt>
      <trkpt lat="45.78604" lon="3.52213">
        <ele>355.4</ele>
        <time>2018-01-14T10:17:34Z</time>
      </trkpt>
      <trkpt lat="45.78595" lon="3.52184">
        <ele>356.4</ele>
        <time>2018-01-14T10:18:34Z</time>
      </trkpt>
      <trkpt lat="45.78589" lon="3.52164">
        <ele>357.9</ele>
        <time>2018-01-14T10:19:34Z</time>
      </trkpt>
      <trkpt lat="45.78589" lon="3.52151">
        <ele>357.8</ele>
        <time>2018-01-14T10:20:34Z</time>
      </trkpt>
      <trkpt lat="45.78605" lon="3.52088">
        <ele>358.5</ele>
        <time>2018-01-14T10:21:34Z</time>
      </trkpt>
      <trkpt lat="45.78619" lon="3.52032">
        <ele>358.9</ele>
        <time>2018-01-14T10:22:34Z</time>
      </trkpt>
      <trkpt lat="45.78626" lon="3.52001">
        <ele>358.8</ele>
        <time>2018-01-14T10:23:34Z</time>
      </trkpt>
      <trkpt lat="45.78622" lon="3.51992">
        <ele>358.9</ele>
        <time>2018-01-14T10:24:34Z</time>
      </trkpt>
      <trkpt lat="45.78534" lon="3.51974">
        <ele>361.1</ele>
        <time>2018-01-14T10:25:34Z</time>
      </trkpt>
      <trkpt lat="45.78518" lon="3.51971">
        <ele>361.3</ele>
        <time>2018-01-14T10:26:34Z</time>
      </trkpt>
      <trkpt lat="45.78472" lon="3.51966">
        <ele>362</ele>
        <time>2018-01-14T10:27:34Z</time>
      </trkpt>
      <trkpt lat="45.78455" lon="3.51964">
        <ele>362</ele>
        <time>2018-01-14T10:28:34Z</time>
      </trkpt>
      <trkpt lat="45.7844" lon="3.5196">
        <ele>362</ele>
        <time>2018-01-14T10:29:34Z</time>
      </trkpt>
      <trkpt lat="45.78429" lon="3.51946">
        <ele>362.2</ele>
        <time>2018-01-14T10:30:34Z</time>
      </trkpt>
      <trkpt lat="45.78418" lon="3.51923">
        <ele>362.8</ele>
        <time>2018-01-14T10:31:34Z</time>
      </trkpt>
      <trkpt lat="45.78408" lon="3.51903">
        <ele>363.1</ele>
        <time>2018-01-14T10:32:34Z</time>
      </trkpt>
      <trkpt lat="45.78397" lon="3.51884">
        <ele>363.3</ele>
        <time>2018-01-14T10:33:34Z</time>
      </trkpt>
      <trkpt lat="45.78384" lon="3.51859">
        <ele>363.6</ele>
        <time>2018-01-14T10:34:34Z</time>
      </trkpt>
      <trkpt lat="45.78376" lon="3.51829">
        <ele>365</ele>
        <time>2018-01-14T10:35:34Z</time>
      </trkpt>
      <trkpt lat="45.78371" lon="3.51807">
        <ele>365.1</ele>
        <time>2018-01-14T10:36:34Z</time>
      </trkpt>
      <trkpt lat="45.78364" lon="3.51789">
        <ele>365.2</ele>
        <time>2018-01-14T10:37:34Z</time>
      </trkpt>
      <trkpt lat="45.78359" lon="3.51777">
        <ele>365.4</ele>
        <time>2018-01-14T10:38:34Z</time>
      </trkpt>
      <trkpt lat="45.78351" lon="3.51768">
        <ele>365.5</ele>
        <time>2018-01-14T10:39:34Z</time>
      </trkpt>
      <trkpt lat="45.7834" lon="3.51763">
        <ele>365.6</ele>
        <time>2018-01-14T10:40:34Z</time>
      </trkpt>
      <trkpt lat="45.78325" lon="3.51734">
        <ele>367</ele>
        <time>2018-01-14T10:41:34Z</time>
      </trkpt>
      <trkpt lat="45.78316" lon="3.51713">
        <ele>367.7</ele>
        <time>2018-01-14T10:42:34Z</time>
      </trkpt>
      <trkpt lat="45.78314" lon="3.51699">
        <ele>368.1</ele>
        <time>2018-01-14T10:43:34Z</time>
      </trkpt>
      <trkpt lat="45.78316" lon="3.5164">
        <ele>370.7</ele>
        <time>2018-01-14T10:44:34Z</time>
      </trkpt>
      <trkpt lat="45.78314" lon="3.51627">
        <ele>371</ele>
        <time>2018-01-14T10:45:34Z</time>
      </trkpt>
      <trkpt lat="45.78313" lon="3.51614">
        <ele>371.2</ele>
        <time>2018-01-14T10:46:34Z</time>
      </trkpt>
      <trkpt lat="45.78294" lon="3.51583">
        <ele>372.3</ele>
        <time>2018-01-14T10:47:34Z</time>
      </trkpt>
      <trkpt lat="45.78266" lon="3.51539">
        <ele>372.6</ele>
        <time>2018-01-14T10:48:34Z</time>
      </trkpt>
      <trkpt lat="45.78243" lon="3.51506">
        <ele>374.3</ele>
        <time>2018-01-14T10:49:34Z</time>
      </trkpt>
      <trkpt lat="45.78214" lon="3.5147">
        <ele>376.9</ele>
        <time>2018-01-14T10:50:34Z</time>
      </trkpt>
      <trkpt lat="45.78198" lon="3.5145">
        <ele>377.6</ele>
        <time>2018-01-14T10:51:34Z</time>
      </trkpt>
      <trkpt lat="45.78191" lon="3.51439">
        <ele>378</ele>
        <time>2018-01-14T10:52:34Z</time>
      </trkpt>
      <trkpt lat="45.78184" lon="3.5143">
        <ele>378.4</ele>
        <time>2018-01-14T10:53:34Z</time>
      </trkpt>
      <trkpt lat="45.78175" lon="3.51403">
        <ele>380.2</ele>
        <time>2018-01-14T10:54:34Z</time>
      </trkpt>
      <trkpt lat="45.78168" lon="3.51388">
        <ele>380.5</ele>
        <time>2018-01-14T10:55:34Z</time>
      </trkpt>
      <trkpt lat="45.78155" lon="3.51363">
        <ele>383.4</ele>
        <time>2018-01-14T10:56:34Z</time>
      </trkpt>
      <trkpt lat="45.78127" lon="3.51322">
        <ele>387.2</ele>
        <time>2018-01-14T10:57:34Z</time>
      </trkpt>
      <trkpt lat="45.7811" lon="3.51297">
        <ele>388.2</ele>
        <time>2018-01-14T10:58:34Z</time>
      </trkpt>
      <trkpt lat="45.78097" lon="3.51282">
        <ele>389.2</ele>
        <time>2018-01-14T10:59:34Z</time>
      </trkpt>
      <trkpt lat="45.78077" lon="3.51259">
        <ele>391.6</ele>
        <time>2018-01-14T11:00:34Z</time>
      </trkpt>
      <trkpt lat="45.78063" lon="3.51241">
        <ele>394.2</ele>
        <time>2018-01-14T11:01:34Z</time>
      </trkpt>
      <trkpt lat="45.78042" lon="3.51216">
        <ele>395</ele>
        <time>2018-01-14T11:02:34Z</time>
      </trkpt>
      <trkpt lat="45.78013" lon="3.51182">
        <ele>396.4</ele>
        <time>2018-01-14T11:03:34Z</time>
      </trkpt>
      <trkpt lat="45.77993" lon="3.51153">
        <ele>399</ele>
        <time>2018-01-14T11:04:34Z</time>
      </trkpt>
      <trkpt lat="45.77975" lon="3.51126">
        <ele>400.3</ele>
        <time>2018-01-14T11:05:34Z</time>
      </trkpt>
      <trkpt lat="45.77954" lon="3.51087">
        <ele>401.3</ele>
        <time>2018-01-14T11:06:34Z</time>
      </trkpt>
      <trkpt lat="45.77935" lon="3.51056">
        <ele>403.8</ele>
        <time>2018-01-14T11:07:34Z</time>
      </trkpt>
      <trkpt lat="45.7792" lon="3.51035">
        <ele>404.1</ele>
        <time>2018-01-14T11:08:34Z</time>
      </trkpt>
      <trkpt lat="45.77905" lon="3.51021">
        <ele>404.6</ele>
        <time>2018-01-14T11:09:34Z</time>
      </trkpt>
      <trkpt lat="45.77889" lon="3.5102">
        <ele>404.7</ele>
        <time>2018-01-14T11:10:34Z</time>
      </trkpt>
      <trkpt lat="45.77862" lon="3.51027">
        <ele>404.8</ele>
        <time>2018-01-14T11:11:34Z</time>
      </trkpt>
      <trkpt lat="45.77841" lon="3.5104">
        <ele>404.7</ele>
        <time>2018-01-14T11:12:34Z</time>
      </trkpt>
      <trkpt lat="45.77828" lon="3.51043">
        <ele>405.9</ele>
        <time>2018-01-14T11:13:34Z</time>
      </trkpt>
      <trkpt lat="45.77813" lon="3.51047">
        <ele>406.1</ele>
        <time>2018-01-14T11:14:34Z</time>
      </trkpt>
      <trkpt lat="45.77799" lon="3.51052">
        <ele>406.3</ele>
        <time>2018-01-14T11:15:34Z</time>
      </trkpt>
      <trkpt lat="45.77789" lon="3.51054">
        <ele>406.5</ele>
        <time>2018-01-14T11:16:34Z</time>
      </trkpt>
      <trkpt lat="45.77779" lon="3.51048">
        <ele>406.7</ele>
        <time>2018-01-14T11:17:34Z</time>
      </trkpt>
      <trkpt lat="45.77771" lon="3.5103">
        <ele>406.9</ele>
        <time>2018-01-14T11:18:34Z</time>
      </trkpt>
      <trkpt lat="45.77767" lon="3.51009">
        <ele>407.2</ele>
        <time>2018-01-14T11:19:34Z</time>
      </trkpt>
      <trkpt lat="45.77752" lon="3.50967">
        <ele>407.7</ele>
        <time>2018-01-14T11:20:34Z</time>
      </trkpt>
      <trkpt lat="45.77733" lon="3.50922">
        <ele>410.2</ele>
        <time>2018-01-14T11:21:34Z</time>
      </trkpt>
      <trkpt lat="45.77715" lon="3.50886">
        <ele>411.7</ele>
        <time>2018-01-14T11:22:34Z</time>
      </trkpt>
      <trkpt lat="45.77703" lon="3.50867">
        <ele>412.2</ele>
        <time>2018-01-14T11:23:34Z</time>
      </trkpt>
      <trkpt lat="45.77685" lon="3.50843">
        <ele>413.2</ele>
        <time>2018-01-14T11:24:34Z</time>
      </trkpt>
      <trkpt lat="45.77654" lon="3.50813">
        <ele>418.1</ele>
        <time>2018-01-14T11:25:34Z</time>
      </trkpt>
      <trkpt lat="45.77635" lon="3.50796">
        <ele>419.5</ele>
        <time>2018-01-14T11:26:34Z</time>
      </trkpt>
      <trkpt lat="45.77622" lon="3.50787">
        <ele>420.2</ele>
        <time>2018-01-14T11:27:34Z</time>
      </trkpt>
      <trkpt lat="45.77596" lon="3.50775">
        <ele>421.5</ele>
        <time>2018-01-14T11:28:34Z</time>
      </trkpt>
      <trkpt lat="45.77575" lon="3.50758">
        <ele>424.3</ele>
        <time>2018-01-14T11:29:34Z</time>
      </trkpt>
      <trkpt lat="45.77552" lon="3.50727">
        <ele>426.3</ele>
        <time>2018-01-14T11:30:34Z</time>
      </trkpt>
      <trkpt lat="45.77516" lon="3.50683">
        <ele>427.7</ele>
        <time>2018-01-14T11:31:34Z</time>
      </trkpt>
      <trkpt lat="45.77499" lon="3.50656">
        <ele>429</ele>
        <time>2018-01-14T11:32:34Z</time>
      </trkpt>
      <trkpt lat="45.77485" lon="3.50626">
        <ele>428.7</ele>
        <time>2018-01-14T11:33:34Z</time>
      </trkpt>
      <trkpt lat="45.77481" lon="3.50605">
        <ele>428.4</ele>
        <time>2018-01-14T11:34:34Z</time>
      </trkpt>
      <trkpt lat="45.77479" lon="3.50571">
        <ele>427.7</ele>
        <time>2018-01-14T11:35:34Z</time>
      </trkpt>
      <trkpt lat="45.77476" lon="3.50552">
        <ele>427.7</ele>
        <time>2018-01-14T11:36:34Z</time>
      </trkpt>
      <trkpt lat="45.77471" lon="3.50531">
        <ele>427.7</ele>
        <time>2018-01-14T11:37:34Z</time>
      </trkpt>
      <trkpt lat="45.77452" lon="3.50471">
        <ele>428</ele>
        <time>2018-01-14T11:38:34Z</time>
      </trkpt>
      <trkpt lat="45.77449" lon="3.50449">
        <ele>428.2</ele>
        <time>2018-01-14T11:39:34Z</time>
      </trkpt>
      <trkpt lat="45.77445" lon="3.50407">
        <ele>429</ele>
        <time>2018-01-14T11:40:34Z</time>
      </trkpt>
      <trkpt lat="45.7744" lon="3.50401">
        <ele>429.1</ele>
        <time>2018-01-14T11:41:34Z</time>
      </trkpt>
      <trkpt lat="45.77394" lon="3.50383">
        <ele>430.9</ele>
        <time>2018-01-14T11:42:34Z</time>
      </trkpt>
      <trkpt lat="45.77375" lon="3.50381">
        <ele>431</ele>
        <time>2018-01-14T11:43:34Z</time>
      </trkpt>
      <trkpt lat="45.77349" lon="3.50381">
        <ele>431.2</ele>
        <time>2018-01-14T11:44:34Z</time>
      </trkpt>
      <trkpt lat="45.77325" lon="3.50381">
        <ele>432.7</ele>
        <time>2018-01-14T11:45:34Z</time>
      </trkpt>
      <trkpt lat="45.77275" lon="3.50384">
        <ele>433.6</ele>
        <time>2018-01-14T11:46:34Z</time>
      </trkpt>
      <trkpt lat="45.77241" lon="3.50383">
        <ele>436.3</ele>
        <time>2018-01-14T11:47:34Z</time>
      </trkpt>
      <trkpt lat="45.77218" lon="3.50382">
        <ele>436.8</ele>
        <time>2018-01-14T11:48:34Z</time>
      </trkpt>
      <trkpt lat="45.77182" lon="3.50378">
        <ele>437.6</ele>
        <time>2018-01-14T11:49:34Z</time>
      </trkpt>
      <trkpt lat="45.77164" lon="3.5038">
        <ele>439</ele>
        <time>2018-01-14T11:50:34Z</time>
      </trkpt>
      <trkpt lat="45.77126" lon="3.5039">
        <ele>439.3</ele>
        <time>2018-01-14T11:51:34Z</time>
      </trkpt>
      <trkpt lat="45.7709" lon="3.50403">
        <ele>440.5</ele>
        <time>2018-01-14T11:52:34Z</time>
      </trkpt>
      <trkpt lat="45.77048" lon="3.50412">
        <ele>441</ele>
        <time>2018-01-14T11:53:34Z</time>
      </trkpt>
      <trkpt lat="45.77013" lon="3.50418">
        <ele>443.8</ele>
        <time>2018-01-14T11:54:34Z</time>
      </trkpt>
      <trkpt lat="45.76998" lon="3.50417">
        <ele>444.1</ele>
        <time>2018-01-14T11:55:34Z</time>
      </trkpt>
      <trkpt lat="45.76979" lon="3.50413">
        <ele>443.5</ele>
        <time>2018-01-14T11:56:34Z</time>
      </trkpt>
      <trkpt lat="45.76964" lon="3.50375">
        <ele>442.6</ele>
        <time>2018-01-14T11:57:34Z</time>
      </trkpt>
      <trkpt lat="45.76939" lon="3.50305">
        <ele>438.2</ele>
        <time>2018-01-14T11:58:34Z</time>
      </trkpt>
      <trkpt lat="45.76902" lon="3.50211">
        <ele>434.8</ele>
        <time>2018-01-14T11:59:34Z</time>
      </trkpt>
      <trkpt lat="45.76892" lon="3.50183">
        <ele>434</ele>
        <time>2018-01-14T12:00:34Z</time>
      </trkpt>
      <trkpt lat="45.76884" lon="3.50172">
        <ele>434.1</ele>
        <time>2018-01-14T12:01:34Z</time>
      </trkpt>
      <trkpt lat="45.76868" lon="3.50151">
        <ele>430.8</ele>
        <time>2018-01-14T12:02:34Z</time>
      </trkpt>
      <trkpt lat="45.76858" lon="3.50138">
        <ele>430.7</ele>
        <time>2018-01-14T12:03:34Z</time>
      </trkpt>
      <trkpt lat="45.76851" lon="3.50124">
        <ele>430.2</ele>
        <time>2018-01-14T12:04:34Z</time>
      </trkpt>
      <trkpt lat="45.76848" lon="3.50108">
        <ele>429.8</ele>
        <time>2018-01-14T12:05:34Z</time>
      </trkpt>
      <trkpt lat="45.76853" lon="3.5007">
        <ele>425.9</ele>
        <time>2018-01-14T12:06:34Z</time>
      </trkpt>
      <trkpt lat="45.76857" lon="3.5003">
        <ele>423.8</ele>
        <time>2018-01-14T12:07:34Z</time>
      </trkpt>
      <trkpt lat="45.76855" lon="3.49991">
        <ele>420.8</ele>
        <time>2018-01-14T12:08:34Z</time>
      </trkpt>
      <trkpt lat="45.76853" lon="3.49951">
        <ele>419.2</ele>
        <time>2018-01-14T12:09:34Z</time>
      </trkpt>
      <trkpt lat="45.76851" lon="3.49921">
        <ele>418.7</ele>
        <time>2018-01-14T12:10:34Z</time>
      </trkpt>
      <trkpt lat="45.76847" lon="3.49902">
        <ele>415.3</ele>
        <time>2018-01-14T12:11:34Z</time>
      </trkpt>
      <trkpt lat="45.76832" lon="3.49851">
        <ele>414.4</ele>
        <time>2018-01-14T12:12:34Z</time>
      </trkpt>
      <trkpt lat="45.7682" lon="3.498">
        <ele>411.1</ele>
        <time>2018-01-14T12:13:34Z</time>
      </trkpt>
      <trkpt lat="45.76815" lon="3.49783">
        <ele>410.5</ele>
        <time>2018-01-14T12:14:34Z</time>
      </trkpt>
      <trkpt lat="45.768" lon="3.49755">
        <ele>410.3</ele>
        <time>2018-01-14T12:15:34Z</time>
      </trkpt>
      <trkpt lat="45.76792" lon="3.49743">
        <ele>407.2</ele>
        <time>2018-01-14T12:16:34Z</time>
      </trkpt>
      <trkpt lat="45.76781" lon="3.49727">
        <ele>407.3</ele>
        <time>2018-01-14T12:17:34Z</time>
      </trkpt>
      <trkpt lat="45.76763" lon="3.49718">
        <ele>407.6</ele>
        <time>2018-01-14T12:18:34Z</time>
      </trkpt>
      <trkpt lat="45.76751" lon="3.49709">
        <ele>407.3</ele>
        <time>2018-01-14T12:19:34Z</time>
      </trkpt>
      <trkpt lat="45.76743" lon="3.49696">
        <ele>409.4</ele>
        <time>2018-01-14T12:20:34Z</time>
      </trkpt>
      <trkpt lat="45.7674" lon="3.49685">
        <ele>408.7</ele>
        <time>2018-01-14T12:21:34Z</time>
      </trkpt>
      <trkpt lat="45.76742" lon="3.49648">
        <ele>406.1</ele>
        <time>2018-01-14T12:22:34Z</time>
      </trkpt>
      <trkpt lat="45.76745" lon="3.4961">
        <ele>405.4</ele>
        <time>2018-01-14T12:23:34Z</time>
      </trkpt>
      <trkpt lat="45.76743" lon="3.49572">
        <ele>403.4</ele>
        <time>2018-01-14T12:24:34Z</time>
      </trkpt>
      <trkpt lat="45.76739" lon="3.49523">
        <ele>402</ele>
        <time>2018-01-14T12:25:34Z</time>
      </trkpt>
      <trkpt lat="45.76735" lon="3.49512">
        <ele>401.7</ele>
        <time>2018-01-14T12:26:34Z</time>
      </trkpt>
      <trkpt lat="45.76705" lon="3.49476">
        <ele>398.5</ele>
        <time>2018-01-14T12:27:34Z</time>
      </trkpt>
      <trkpt lat="45.76685" lon="3.4945">
        <ele>397.5</ele>
        <time>2018-01-14T12:28:34Z</time>
      </trkpt>
      <trkpt lat="45.76674" lon="3.4946">
        <ele>397.9</ele>
        <time>2018-01-14T12:29:34Z</time>
      </trkpt>
      <trkpt lat="45.76663" lon="3.49508">
        <ele>400.8</ele>
        <time>2018-01-14T12:30:34Z</time>
      </trkpt>
      <trkpt lat="45.76653" lon="3.49537">
        <ele>402.5</ele>
        <time>2018-01-14T12:31:34Z</time>
      </trkpt>
      <trkpt lat="45.76645" lon="3.49556">
        <ele>403.2</ele>
        <time>2018-01-14T12:32:34Z</time>
      </trkpt>
      <trkpt lat="45.7663" lon="3.4958">
        <ele>403.7</ele>
        <time>2018-01-14T12:33:34Z</time>
      </trkpt>
      <trkpt lat="45.76607" lon="3.49608">
        <ele>407.5</ele>
        <time>2018-01-14T12:34:34Z</time>
      </trkpt>
      <trkpt lat="45.76592" lon="3.49631">
        <ele>408.4</ele>
        <time>2018-01-14T12:35:34Z</time>
      </trkpt>
      <trkpt lat="45.76581" lon="3.49647">
        <ele>410.8</ele>
        <time>2018-01-14T12:36:34Z</time>
      </trkpt>
      <trkpt lat="45.76572" lon="3.49668">
        <ele>413.1</ele>
        <time>2018-01-14T12:37:34Z</time>
      </trkpt>
      <trkpt lat="45.76552" lon="3.49708">
        <ele>416.3</ele>
        <time>2018-01-14T12:38:34Z</time>
      </trkpt>
      <trkpt lat="45.76543" lon="3.49725">
        <ele>417</ele>
        <time>2018-01-14T12:39:34Z</time>
      </trkpt>
      <trkpt lat="45.76526" lon="3.4974">
        <ele>417.5</ele>
        <time>2018-01-14T12:40:34Z</time>
      </trkpt>
      <trkpt lat="45.76506" lon="3.49745">
        <ele>418.4</ele>
        <time>2018-01-14T12:41:34Z</time>
      </trkpt>
      <trkpt lat="45.76493" lon="3.49738">
        <ele>420.2</ele>
        <time>2018-01-14T12:42:34Z</time>
      </trkpt>
      <trkpt lat="45.76481" lon="3.49723">
        <ele>420.9</ele>
        <time>2018-01-14T12:43:34Z</time>
      </trkpt>
      <trkpt lat="45.76473" lon="3.49721">
        <ele>421.3</ele>
        <time>2018-01-14T12:44:34Z</time>
      </trkpt>
      <trkpt lat="45.76455" lon="3.49747">
        <ele>422.7</ele>
        <time>2018-01-14T12:45:34Z</time>
      </trkpt>
      <trkpt lat="45.76431" lon="3.49777">
        <ele>426.8</ele>
        <time>2018-01-14T12:46:34Z</time>
      </trkpt>
      <trkpt lat="45.76404" lon="3.49806">
        <ele>433.2</ele>
        <time>2018-01-14T12:47:34Z</time>
      </trkpt>
      <trkpt lat="45.76381" lon="3.49827">
        <ele>434.9</ele>
        <time>2018-01-14T12:48:34Z</time>
      </trkpt>
      <trkpt lat="45.76355" lon="3.49855">
        <ele>441</ele>
        <time>2018-01-14T12:49:34Z</time>
      </trkpt>
      <trkpt lat="45.76342" lon="3.49869">
        <ele>441.7</ele>
        <time>2018-01-14T12:50:34Z</time>
      </trkpt>
      <trkpt lat="45.76332" lon="3.49876">
        <ele>447.7</ele>
        <time>2018-01-14T12:51:34Z</time>
      </trkpt>
      <trkpt lat="45.76301" lon="3.49879">
        <ele>448.7</ele>
        <time>2018-01-14T12:52:34Z</time>
      </trkpt>
      <trkpt lat="45.76282" lon="3.49881">
        <ele>449.5</ele>
        <time>2018-01-14T12:53:34Z</time>
      </trkpt>
      <trkpt lat="45.76243" lon="3.49886">
        <ele>453.1</ele>
        <time>2018-01-14T12:54:34Z</time>
      </trkpt>
      <trkpt lat="45.76233" lon="3.49893">
        <ele>453.3</ele>
        <time>2018-01-14T12:55:34Z</time>
      </trkpt>
      <trkpt lat="45.76212" lon="3.49915">
        <ele>453.7</ele>
        <time>2018-01-14T12:56:34Z</time>
      </trkpt>
      <trkpt lat="45.76201" lon="3.49943">
        <ele>455.3</ele>
        <time>2018-01-14T12:57:34Z</time>
      </trkpt>
      <trkpt lat="45.76194" lon="3.49976">
        <ele>455.4</ele>
        <time>2018-01-14T12:58:34Z</time>
      </trkpt>
      <trkpt lat="45.76202" lon="3.49953">
        <ele>455.3</ele>
        <time>2018-01-14T10:39:42Z</time>
      </trkpt>
      <trkpt lat="45.76202" lon="3.49953">
        <ele>455.3</ele>
        <time>2018-01-14T10:39:42Z</time>
      </trkpt>
      <trkpt lat="45.76207" lon="3.49933">
        <ele>455.2</ele>
        <time>2018-01-14T10:40:42Z</time>
      </trkpt>
      <trkpt lat="45.76201" lon="3.49919">
        <ele>455.3</ele>
        <time>2018-01-14T10:41:42Z</time>
      </trkpt>
      <trkpt lat="45.76193" lon="3.49908">
        <ele>454</ele>
        <time>2018-01-14T10:42:42Z</time>
      </trkpt>
      <trkpt lat="45.76175" lon="3.49889">
        <ele>453.8</ele>
        <time>2018-01-14T10:43:42Z</time>
      </trkpt>
      <trkpt lat="45.76138" lon="3.49844">
        <ele>451.4</ele>
        <time>2018-01-14T10:44:42Z</time>
      </trkpt>
      <trkpt lat="45.76104" lon="3.49814">
        <ele>447.7</ele>
        <time>2018-01-14T10:45:42Z</time>
      </trkpt>
      <trkpt lat="45.76085" lon="3.49796">
        <ele>447.2</ele>
        <time>2018-01-14T10:46:42Z</time>
      </trkpt>
      <trkpt lat="45.7608" lon="3.49792">
        <ele>448.8</ele>
        <time>2018-01-14T10:47:42Z</time>
      </trkpt>
      <trkpt lat="45.76079" lon="3.4978">
        <ele>448.4</ele>
        <time>2018-01-14T10:48:42Z</time>
      </trkpt>
      <trkpt lat="45.76081" lon="3.49763">
        <ele>447.5</ele>
        <time>2018-01-14T10:49:42Z</time>
      </trkpt>
      <trkpt lat="45.76086" lon="3.49741">
        <ele>444.8</ele>
        <time>2018-01-14T10:50:42Z</time>
      </trkpt>
      <trkpt lat="45.76092" lon="3.49728">
        <ele>443.7</ele>
        <time>2018-01-14T10:51:42Z</time>
      </trkpt>
      <trkpt lat="45.76101" lon="3.49713">
        <ele>442.9</ele>
        <time>2018-01-14T10:52:42Z</time>
      </trkpt>
      <trkpt lat="45.76111" lon="3.49699">
        <ele>442.4</ele>
        <time>2018-01-14T10:53:42Z</time>
      </trkpt>
      <trkpt lat="45.76119" lon="3.49683">
        <ele>441.8</ele>
        <time>2018-01-14T10:54:42Z</time>
      </trkpt>
      <trkpt lat="45.76127" lon="3.49654">
        <ele>440.3</ele>
        <time>2018-01-14T10:55:42Z</time>
      </trkpt>
      <trkpt lat="45.76142" lon="3.49612">
        <ele>439.7</ele>
        <time>2018-01-14T10:56:42Z</time>
      </trkpt>
      <trkpt lat="45.76153" lon="3.49568">
        <ele>439.6</ele>
        <time>2018-01-14T10:57:42Z</time>
      </trkpt>
      <trkpt lat="45.76165" lon="3.49523">
        <ele>440.3</ele>
        <time>2018-01-14T10:58:42Z</time>
      </trkpt>
      <trkpt lat="45.76167" lon="3.49503">
        <ele>437.4</ele>
        <time>2018-01-14T10:59:42Z</time>
      </trkpt>
      <trkpt lat="45.7617" lon="3.49482">
        <ele>435.1</ele>
        <time>2018-01-14T11:00:42Z</time>
      </trkpt>
      <trkpt lat="45.76169" lon="3.4946">
        <ele>433.9</ele>
        <time>2018-01-14T11:01:42Z</time>
      </trkpt>
      <trkpt lat="45.76167" lon="3.49439">
        <ele>434</ele>
        <time>2018-01-14T11:02:42Z</time>
      </trkpt>
      <trkpt lat="45.76164" lon="3.49404">
        <ele>436.4</ele>
        <time>2018-01-14T11:03:42Z</time>
      </trkpt>
      <trkpt lat="45.76151" lon="3.49298">
        <ele>430.9</ele>
        <time>2018-01-14T11:04:42Z</time>
      </trkpt>
      <trkpt lat="45.76141" lon="3.49226">
        <ele>425</ele>
        <time>2018-01-14T11:05:42Z</time>
      </trkpt>
      <trkpt lat="45.76137" lon="3.49196">
        <ele>423.5</ele>
        <time>2018-01-14T11:06:42Z</time>
      </trkpt>
      <trkpt lat="45.76132" lon="3.49177">
        <ele>422.8</ele>
        <time>2018-01-14T11:07:42Z</time>
      </trkpt>
      <trkpt lat="45.76124" lon="3.49168">
        <ele>422.5</ele>
        <time>2018-01-14T11:08:42Z</time>
      </trkpt>
      <trkpt lat="45.76114" lon="3.49165">
        <ele>417.5</ele>
        <time>2018-01-14T11:09:42Z</time>
      </trkpt>
      <trkpt lat="45.76081" lon="3.49157">
        <ele>419.6</ele>
        <time>2018-01-14T11:10:42Z</time>
      </trkpt>
      <trkpt lat="45.76068" lon="3.49155">
        <ele>420.2</ele>
        <time>2018-01-14T11:11:42Z</time>
      </trkpt>
      <trkpt lat="45.76058" lon="3.49152">
        <ele>420.8</ele>
        <time>2018-01-14T11:12:42Z</time>
      </trkpt>
      <trkpt lat="45.76056" lon="3.49144">
        <ele>420.8</ele>
        <time>2018-01-14T11:13:42Z</time>
      </trkpt>
      <trkpt lat="45.76057" lon="3.4913">
        <ele>420.3</ele>
        <time>2018-01-14T11:14:42Z</time>
      </trkpt>
      <trkpt lat="45.76066" lon="3.49118">
        <ele>419.3</ele>
        <time>2018-01-14T11:15:42Z</time>
      </trkpt>
      <trkpt lat="45.76078" lon="3.49106">
        <ele>417.7</ele>
        <time>2018-01-14T11:16:42Z</time>
      </trkpt>
      <trkpt lat="45.76086" lon="3.49094">
        <ele>414</ele>
        <time>2018-01-14T11:17:42Z</time>
      </trkpt>
      <trkpt lat="45.76094" lon="3.49077">
        <ele>411.1</ele>
        <time>2018-01-14T11:18:42Z</time>
      </trkpt>
      <trkpt lat="45.76102" lon="3.49057">
        <ele>409.3</ele>
        <time>2018-01-14T11:19:42Z</time>
      </trkpt>
      <trkpt lat="45.76108" lon="3.49037">
        <ele>408.2</ele>
        <time>2018-01-14T11:20:42Z</time>
      </trkpt>
      <trkpt lat="45.76111" lon="3.49024">
        <ele>407.7</ele>
        <time>2018-01-14T11:21:42Z</time>
      </trkpt>
      <trkpt lat="45.76112" lon="3.4901">
        <ele>407.3</ele>
        <time>2018-01-14T11:22:42Z</time>
      </trkpt>
      <trkpt lat="45.7611" lon="3.4899">
        <ele>401.3</ele>
        <time>2018-01-14T11:23:42Z</time>
      </trkpt>
      <trkpt lat="45.76106" lon="3.48981">
        <ele>401</ele>
        <time>2018-01-14T11:24:42Z</time>
      </trkpt>
      <trkpt lat="45.76097" lon="3.4897">
        <ele>400.3</ele>
        <time>2018-01-14T11:25:42Z</time>
      </trkpt>
      <trkpt lat="45.76085" lon="3.48958">
        <ele>399.1</ele>
        <time>2018-01-14T11:26:42Z</time>
      </trkpt>
      <trkpt lat="45.76076" lon="3.48948">
        <ele>403.9</ele>
        <time>2018-01-14T11:27:42Z</time>
      </trkpt>
      <trkpt lat="45.76067" lon="3.48932">
        <ele>402.1</ele>
        <time>2018-01-14T11:28:42Z</time>
      </trkpt>
      <trkpt lat="45.76061" lon="3.48923">
        <ele>402.1</ele>
        <time>2018-01-14T11:29:42Z</time>
      </trkpt>
      <trkpt lat="45.76052" lon="3.48901">
        <ele>396.3</ele>
        <time>2018-01-14T11:30:42Z</time>
      </trkpt>
      <trkpt lat="45.76044" lon="3.4887">
        <ele>395.6</ele>
        <time>2018-01-14T11:31:42Z</time>
      </trkpt>
      <trkpt lat="45.7604" lon="3.48853">
        <ele>395</ele>
        <time>2018-01-14T11:32:42Z</time>
      </trkpt>
      <trkpt lat="45.76042" lon="3.48844">
        <ele>394.5</ele>
        <time>2018-01-14T11:33:42Z</time>
      </trkpt>
      <trkpt lat="45.76048" lon="3.48835">
        <ele>393.7</ele>
        <time>2018-01-14T11:34:42Z</time>
      </trkpt>
      <trkpt lat="45.76059" lon="3.48814">
        <ele>392.2</ele>
        <time>2018-01-14T11:35:42Z</time>
      </trkpt>
      <trkpt lat="45.76066" lon="3.48793">
        <ele>393.5</ele>
        <time>2018-01-14T11:36:42Z</time>
      </trkpt>
      <trkpt lat="45.7607" lon="3.48785">
        <ele>394.1</ele>
        <time>2018-01-14T11:37:42Z</time>
      </trkpt>
      <trkpt lat="45.76063" lon="3.48775">
        <ele>394.7</ele>
        <time>2018-01-14T11:38:42Z</time>
      </trkpt>
      <trkpt lat="45.76022" lon="3.4873">
        <ele>401</ele>
        <time>2018-01-14T11:39:42Z</time>
      </trkpt>
      <trkpt lat="45.76017" lon="3.48726">
        <ele>401.1</ele>
        <time>2018-01-14T11:40:42Z</time>
      </trkpt>
      <trkpt lat="45.76002" lon="3.4872">
        <ele>401.1</ele>
        <time>2018-01-14T11:41:42Z</time>
      </trkpt>
      <trkpt lat="45.7599" lon="3.48712">
        <ele>399.8</ele>
        <time>2018-01-14T11:42:42Z</time>
      </trkpt>
      <trkpt lat="45.7598" lon="3.48701">
        <ele>400.8</ele>
        <time>2018-01-14T11:43:42Z</time>
      </trkpt>
      <trkpt lat="45.75974" lon="3.48688">
        <ele>401.4</ele>
        <time>2018-01-14T11:44:42Z</time>
      </trkpt>
      <trkpt lat="45.75964" lon="3.48664">
        <ele>406.2</ele>
        <time>2018-01-14T11:45:42Z</time>
      </trkpt>
      <trkpt lat="45.75954" lon="3.48649">
        <ele>406</ele>
        <time>2018-01-14T11:46:42Z</time>
      </trkpt>
      <trkpt lat="45.75947" lon="3.48638">
        <ele>406.1</ele>
        <time>2018-01-14T11:47:42Z</time>
      </trkpt>
      <trkpt lat="45.75938" lon="3.48623">
        <ele>406.1</ele>
        <time>2018-01-14T11:48:42Z</time>
      </trkpt>
      <trkpt lat="45.75933" lon="3.48612">
        <ele>406</ele>
        <time>2018-01-14T11:49:42Z</time>
      </trkpt>
      <trkpt lat="45.75929" lon="3.48592">
        <ele>404.6</ele>
        <time>2018-01-14T11:50:42Z</time>
      </trkpt>
      <trkpt lat="45.75923" lon="3.4854">
        <ele>416.4</ele>
        <time>2018-01-14T11:51:42Z</time>
      </trkpt>
      <trkpt lat="45.75909" lon="3.48503">
        <ele>410.4</ele>
        <time>2018-01-14T11:52:42Z</time>
      </trkpt>
      <trkpt lat="45.75894" lon="3.48477">
        <ele>414.1</ele>
        <time>2018-01-14T11:53:42Z</time>
      </trkpt>
      <trkpt lat="45.75878" lon="3.48456">
        <ele>414.7</ele>
        <time>2018-01-14T11:54:42Z</time>
      </trkpt>
      <trkpt lat="45.7587" lon="3.48439">
        <ele>414.7</ele>
        <time>2018-01-14T11:55:42Z</time>
      </trkpt>
      <trkpt lat="45.75865" lon="3.48406">
        <ele>419</ele>
        <time>2018-01-14T11:56:42Z</time>
      </trkpt>
      <trkpt lat="45.75866" lon="3.48381">
        <ele>420.3</ele>
        <time>2018-01-14T11:57:42Z</time>
      </trkpt>
      <trkpt lat="45.75872" lon="3.48352">
        <ele>421.7</ele>
        <time>2018-01-14T11:58:42Z</time>
      </trkpt>
      <trkpt lat="45.75881" lon="3.48329">
        <ele>426.2</ele>
        <time>2018-01-14T11:59:42Z</time>
      </trkpt>
      <trkpt lat="45.75911" lon="3.48312">
        <ele>430.8</ele>
        <time>2018-01-14T12:00:42Z</time>
      </trkpt>
      <trkpt lat="45.75929" lon="3.48303">
        <ele>443.4</ele>
        <time>2018-01-14T12:01:42Z</time>
      </trkpt>
      <trkpt lat="45.75942" lon="3.4829">
        <ele>444.7</ele>
        <time>2018-01-14T12:02:42Z</time>
      </trkpt>
      <trkpt lat="45.75955" lon="3.48275">
        <ele>445.8</ele>
        <time>2018-01-14T12:03:42Z</time>
      </trkpt>
      <trkpt lat="45.75959" lon="3.48261">
        <ele>446.1</ele>
        <time>2018-01-14T12:04:42Z</time>
      </trkpt>
      <trkpt lat="45.75959" lon="3.48247">
        <ele>447.5</ele>
        <time>2018-01-14T12:05:42Z</time>
      </trkpt>
      <trkpt lat="45.75958" lon="3.48232">
        <ele>447.7</ele>
        <time>2018-01-14T12:06:42Z</time>
      </trkpt>
      <trkpt lat="45.75954" lon="3.48217">
        <ele>447.9</ele>
        <time>2018-01-14T12:07:42Z</time>
      </trkpt>
      <trkpt lat="45.75956" lon="3.48209">
        <ele>448.3</ele>
        <time>2018-01-14T12:08:42Z</time>
      </trkpt>
      <trkpt lat="45.75962" lon="3.482">
        <ele>449</ele>
        <time>2018-01-14T12:09:42Z</time>
      </trkpt>
      <trkpt lat="45.76033" lon="3.48125">
        <ele>464.8</ele>
        <time>2018-01-14T12:10:42Z</time>
      </trkpt>
      <trkpt lat="45.76047" lon="3.48102">
        <ele>466.6</ele>
        <time>2018-01-14T12:11:42Z</time>
      </trkpt>
      <trkpt lat="45.76052" lon="3.48079">
        <ele>469.5</ele>
        <time>2018-01-14T12:12:42Z</time>
      </trkpt>
      <trkpt lat="45.76057" lon="3.48046">
        <ele>469.7</ele>
        <time>2018-01-14T12:13:42Z</time>
      </trkpt>
      <trkpt lat="45.76064" lon="3.48023">
        <ele>471</ele>
        <time>2018-01-14T12:14:42Z</time>
      </trkpt>
      <trkpt lat="45.76082" lon="3.47976">
        <ele>471.8</ele>
        <time>2018-01-14T12:15:42Z</time>
      </trkpt>
      <trkpt lat="45.76092" lon="3.47953">
        <ele>477.7</ele>
        <time>2018-01-14T12:16:42Z</time>
      </trkpt>
      <trkpt lat="45.76105" lon="3.47926">
        <ele>477.4</ele>
        <time>2018-01-14T12:17:42Z</time>
      </trkpt>
      <trkpt lat="45.76116" lon="3.47905">
        <ele>476.2</ele>
        <time>2018-01-14T12:18:42Z</time>
      </trkpt>
      <trkpt lat="45.76149" lon="3.47871">
        <ele>477</ele>
        <time>2018-01-14T12:19:42Z</time>
      </trkpt>
      <trkpt lat="45.76169" lon="3.4785">
        <ele>480.2</ele>
        <time>2018-01-14T12:20:42Z</time>
      </trkpt>
      <trkpt lat="45.76189" lon="3.47834">
        <ele>480.5</ele>
        <time>2018-01-14T12:21:42Z</time>
      </trkpt>
      <trkpt lat="45.76211" lon="3.47815">
        <ele>481.8</ele>
        <time>2018-01-14T12:22:42Z</time>
      </trkpt>
      <trkpt lat="45.76234" lon="3.47791">
        <ele>482.4</ele>
        <time>2018-01-14T12:23:42Z</time>
      </trkpt>
      <trkpt lat="45.76244" lon="3.47775">
        <ele>482.8</ele>
        <time>2018-01-14T12:24:42Z</time>
      </trkpt>
      <trkpt lat="45.76267" lon="3.47725">
        <ele>482.2</ele>
        <time>2018-01-14T12:25:42Z</time>
      </trkpt>
      <trkpt lat="45.76278" lon="3.47692">
        <ele>481.9</ele>
        <time>2018-01-14T12:26:42Z</time>
      </trkpt>
      <trkpt lat="45.76282" lon="3.4767">
        <ele>482</ele>
        <time>2018-01-14T12:27:42Z</time>
      </trkpt>
      <trkpt lat="45.76283" lon="3.47643">
        <ele>481.5</ele>
        <time>2018-01-14T12:28:42Z</time>
      </trkpt>
      <trkpt lat="45.76276" lon="3.47632">
        <ele>481.6</ele>
        <time>2018-01-14T12:29:42Z</time>
      </trkpt>
      <trkpt lat="45.76226" lon="3.4764">
        <ele>485.8</ele>
        <time>2018-01-14T12:30:42Z</time>
      </trkpt>
      <trkpt lat="45.76201" lon="3.47637">
        <ele>486.4</ele>
        <time>2018-01-14T12:31:42Z</time>
      </trkpt>
      <trkpt lat="45.76151" lon="3.47606">
        <ele>489.7</ele>
        <time>2018-01-14T12:32:42Z</time>
      </trkpt>
      <trkpt lat="45.76085" lon="3.4755">
        <ele>494.3</ele>
        <time>2018-01-14T12:33:42Z</time>
      </trkpt>
      <trkpt lat="45.75978" lon="3.4745">
        <ele>495.6</ele>
        <time>2018-01-14T12:34:42Z</time>
      </trkpt>
      <trkpt lat="45.75937" lon="3.47376">
        <ele>492.2</ele>
        <time>2018-01-14T12:35:42Z</time>
      </trkpt>
      <trkpt lat="45.75898" lon="3.47305">
        <ele>490.4</ele>
        <time>2018-01-14T12:36:42Z</time>
      </trkpt>
      <trkpt lat="45.75862" lon="3.47232">
        <ele>487.3</ele>
        <time>2018-01-14T12:37:42Z</time>
      </trkpt>
      <trkpt lat="45.75834" lon="3.4719">
        <ele>487</ele>
        <time>2018-01-14T12:38:42Z</time>
      </trkpt>
      <trkpt lat="45.75789" lon="3.47151">
        <ele>485.5</ele>
        <time>2018-01-14T12:39:42Z</time>
      </trkpt>
      <trkpt lat="45.75783" lon="3.47118">
        <ele>486.1</ele>
        <time>2018-01-14T12:40:42Z</time>
      </trkpt>
      <trkpt lat="45.75779" lon="3.47066">
        <ele>488.6</ele>
        <time>2018-01-14T12:41:42Z</time>
      </trkpt>
      <trkpt lat="45.75776" lon="3.47017">
        <ele>490</ele>
        <time>2018-01-14T12:42:42Z</time>
      </trkpt>
      <trkpt lat="45.7577" lon="3.46987">
        <ele>490.3</ele>
        <time>2018-01-14T12:43:42Z</time>
      </trkpt>
      <trkpt lat="45.75748" lon="3.46941">
        <ele>493.1</ele>
        <time>2018-01-14T12:44:42Z</time>
      </trkpt>
      <trkpt lat="45.75727" lon="3.46907">
        <ele>490.3</ele>
        <time>2018-01-14T12:45:42Z</time>
      </trkpt>
      <trkpt lat="45.75709" lon="3.46886">
        <ele>489.9</ele>
        <time>2018-01-14T12:46:42Z</time>
      </trkpt>
      <trkpt lat="45.75682" lon="3.46856">
        <ele>489.1</ele>
        <time>2018-01-14T12:47:42Z</time>
      </trkpt>
      <trkpt lat="45.75667" lon="3.46823">
        <ele>486.5</ele>
        <time>2018-01-14T12:48:42Z</time>
      </trkpt>
      <trkpt lat="45.75638" lon="3.46734">
        <ele>484.8</ele>
        <time>2018-01-14T12:49:42Z</time>
      </trkpt>
      <trkpt lat="45.75619" lon="3.46757">
        <ele>486.6</ele>
        <time>2018-01-14T12:50:42Z</time>
      </trkpt>
      <trkpt lat="45.75601" lon="3.46776">
        <ele>487</ele>
        <time>2018-01-14T12:51:42Z</time>
      </trkpt>
      <trkpt lat="45.75578" lon="3.46803">
        <ele>487.6</ele>
        <time>2018-01-14T12:52:42Z</time>
      </trkpt>
      <trkpt lat="45.7555" lon="3.4685">
        <ele>487.9</ele>
        <time>2018-01-14T12:53:42Z</time>
      </trkpt>
      <trkpt lat="45.75533" lon="3.46895">
        <ele>487.6</ele>
        <time>2018-01-14T12:54:42Z</time>
      </trkpt>
      <trkpt lat="45.75526" lon="3.46902">
        <ele>487.3</ele>
        <time>2018-01-14T12:55:42Z</time>
      </trkpt>
      <trkpt lat="45.75518" lon="3.4689">
        <ele>487.2</ele>
        <time>2018-01-14T12:56:42Z</time>
      </trkpt>
      <trkpt lat="45.75486" lon="3.46841">
        <ele>484.9</ele>
        <time>2018-01-14T12:57:42Z</time>
      </trkpt>
      <trkpt lat="45.75462" lon="3.46811">
        <ele>485</ele>
        <time>2018-01-14T12:58:42Z</time>
      </trkpt>
      <trkpt lat="45.75437" lon="3.46786">
        <ele>484.8</ele>
        <time>2018-01-14T12:59:42Z</time>
      </trkpt>
      <trkpt lat="45.75408" lon="3.46767">
        <ele>483.8</ele>
        <time>2018-01-14T13:00:42Z</time>
      </trkpt>
      <trkpt lat="45.75359" lon="3.46742">
        <ele>482</ele>
        <time>2018-01-14T13:01:42Z</time>
      </trkpt>
      <trkpt lat="45.75329" lon="3.46728">
        <ele>481.4</ele>
        <time>2018-01-14T13:02:42Z</time>
      </trkpt>
      <trkpt lat="45.75308" lon="3.46738">
        <ele>481.6</ele>
        <time>2018-01-14T13:03:42Z</time>
      </trkpt>
      <trkpt lat="45.75266" lon="3.46762">
        <ele>482.8</ele>
        <time>2018-01-14T13:04:42Z</time>
      </trkpt>
      <trkpt lat="45.7525" lon="3.46768">
        <ele>484.4</ele>
        <time>2018-01-14T13:05:42Z</time>
      </trkpt>
      <trkpt lat="45.75238" lon="3.4677">
        <ele>484.8</ele>
        <time>2018-01-14T13:06:42Z</time>
      </trkpt>
      <trkpt lat="45.75228" lon="3.46766">
        <ele>485.1</ele>
        <time>2018-01-14T13:07:42Z</time>
      </trkpt>
      <trkpt lat="45.75205" lon="3.46756">
        <ele>486.2</ele>
        <time>2018-01-14T13:08:42Z</time>
      </trkpt>
      <trkpt lat="45.75183" lon="3.46751">
        <ele>487.5</ele>
        <time>2018-01-14T13:09:42Z</time>
      </trkpt>
      <trkpt lat="45.75165" lon="3.46752">
        <ele>489.3</ele>
        <time>2018-01-14T13:10:42Z</time>
      </trkpt>
      <trkpt lat="45.75148" lon="3.46756">
        <ele>490.5</ele>
        <time>2018-01-14T13:11:42Z</time>
      </trkpt>
      <trkpt lat="45.75099" lon="3.46782">
        <ele>492.6</ele>
        <time>2018-01-14T13:12:42Z</time>
      </trkpt>
      <trkpt lat="45.75089" lon="3.46789">
        <ele>492.6</ele>
        <time>2018-01-14T13:13:42Z</time>
      </trkpt>
      <trkpt lat="45.75082" lon="3.4679">
        <ele>496.4</ele>
        <time>2018-01-14T13:14:42Z</time>
      </trkpt>
      <trkpt lat="45.75074" lon="3.46783">
        <ele>496.6</ele>
        <time>2018-01-14T13:15:42Z</time>
      </trkpt>
      <trkpt lat="45.75062" lon="3.46762">
        <ele>496.9</ele>
        <time>2018-01-14T13:16:42Z</time>
      </trkpt>
      <trkpt lat="45.75049" lon="3.4675">
        <ele>496.3</ele>
        <time>2018-01-14T13:17:42Z</time>
      </trkpt>
      <trkpt lat="45.75033" lon="3.46746">
        <ele>496.6</ele>
        <time>2018-01-14T13:18:42Z</time>
      </trkpt>
      <trkpt lat="45.75009" lon="3.46742">
        <ele>497.7</ele>
        <time>2018-01-14T13:19:42Z</time>
      </trkpt>
      <trkpt lat="45.74955" lon="3.46743">
        <ele>495.8</ele>
        <time>2018-01-14T13:20:42Z</time>
      </trkpt>
      <trkpt lat="45.74937" lon="3.4674">
        <ele>495.7</ele>
        <time>2018-01-14T13:21:42Z</time>
      </trkpt>
      <trkpt lat="45.7492" lon="3.46742">
        <ele>496.3</ele>
        <time>2018-01-14T13:22:42Z</time>
      </trkpt>
      <trkpt lat="45.74906" lon="3.46736">
        <ele>493.5</ele>
        <time>2018-01-14T13:23:42Z</time>
      </trkpt>
      <trkpt lat="45.74899" lon="3.46733">
        <ele>492.7</ele>
        <time>2018-01-14T13:24:42Z</time>
      </trkpt>
      <trkpt lat="45.7487" lon="3.46718">
        <ele>490.4</ele>
        <time>2018-01-14T13:25:42Z</time>
      </trkpt>
      <trkpt lat="45.74857" lon="3.46711">
        <ele>489.8</ele>
        <time>2018-01-14T13:26:42Z</time>
      </trkpt>
      <trkpt lat="45.74845" lon="3.46709">
        <ele>489.4</ele>
        <time>2018-01-14T13:27:42Z</time>
      </trkpt>
      <trkpt lat="45.74835" lon="3.46707">
        <ele>489.2</ele>
        <time>2018-01-14T13:28:42Z</time>
      </trkpt>
      <trkpt lat="45.74817" lon="3.46716">
        <ele>485.3</ele>
        <time>2018-01-14T13:29:42Z</time>
      </trkpt>
      <trkpt lat="45.74793" lon="3.46724">
        <ele>484.3</ele>
        <time>2018-01-14T13:30:42Z</time>
      </trkpt>
      <trkpt lat="45.74777" lon="3.4673">
        <ele>483.5</ele>
        <time>2018-01-14T13:31:42Z</time>
      </trkpt>
      <trkpt lat="45.74761" lon="3.46743">
        <ele>482.3</ele>
        <time>2018-01-14T13:32:42Z</time>
      </trkpt>
      <trkpt lat="45.74742" lon="3.4676">
        <ele>476.5</ele>
        <time>2018-01-14T13:33:42Z</time>
      </trkpt>
      <trkpt lat="45.74731" lon="3.46772">
        <ele>473.1</ele>
        <time>2018-01-14T13:34:42Z</time>
      </trkpt>
      <trkpt lat="45.74711" lon="3.46794">
        <ele>469.7</ele>
        <time>2018-01-14T13:35:42Z</time>
      </trkpt>
      <trkpt lat="45.74705" lon="3.46806">
        <ele>468.6</ele>
        <time>2018-01-14T13:36:42Z</time>
      </trkpt>
      <trkpt lat="45.74704" lon="3.46825">
        <ele>467.9</ele>
        <time>2018-01-14T13:37:42Z</time>
      </trkpt>
      <trkpt lat="45.74717" lon="3.46854">
        <ele>462.3</ele>
        <time>2018-01-14T13:38:42Z</time>
      </trkpt>
      <trkpt lat="45.74724" lon="3.46865">
        <ele>461.9</ele>
        <time>2018-01-14T13:39:42Z</time>
      </trkpt>
      <trkpt lat="45.74717" lon="3.46871">
        <ele>460.5</ele>
        <time>2018-01-14T13:40:42Z</time>
      </trkpt>
      <trkpt lat="45.7471" lon="3.46872">
        <ele>459.7</ele>
        <time>2018-01-14T13:41:42Z</time>
      </trkpt>
      <trkpt lat="45.74691" lon="3.46873">
        <ele>457.9</ele>
        <time>2018-01-14T13:42:42Z</time>
      </trkpt>
      <trkpt lat="45.74674" lon="3.46868">
        <ele>457.2</ele>
        <time>2018-01-14T13:43:42Z</time>
      </trkpt>
      <trkpt lat="45.74644" lon="3.4684">
        <ele>448.5</ele>
        <time>2018-01-14T13:44:42Z</time>
      </trkpt>
      <trkpt lat="45.74629" lon="3.46821">
        <ele>450.1</ele>
        <time>2018-01-14T13:45:42Z</time>
      </trkpt>
      <trkpt lat="45.74624" lon="3.46811">
        <ele>449.6</ele>
        <time>2018-01-14T13:46:42Z</time>
      </trkpt>
      <trkpt lat="45.74619" lon="3.46791">
        <ele>449.8</ele>
        <time>2018-01-14T13:47:42Z</time>
      </trkpt>
      <trkpt lat="45.74616" lon="3.46781">
        <ele>449.9</ele>
        <time>2018-01-14T13:48:42Z</time>
      </trkpt>
      <trkpt lat="45.7461" lon="3.46779">
        <ele>449.3</ele>
        <time>2018-01-14T13:49:42Z</time>
      </trkpt>
      <trkpt lat="45.74598" lon="3.46788">
        <ele>447.9</ele>
        <time>2018-01-14T13:50:42Z</time>
      </trkpt>
      <trkpt lat="45.74586" lon="3.46799">
        <ele>446.3</ele>
        <time>2018-01-14T13:51:42Z</time>
      </trkpt>
      <trkpt lat="45.74569" lon="3.46835">
        <ele>436.8</ele>
        <time>2018-01-14T13:52:42Z</time>
      </trkpt>
      <trkpt lat="45.74562" lon="3.46842">
        <ele>436.7</ele>
        <time>2018-01-14T13:53:42Z</time>
      </trkpt>
      <trkpt lat="45.74558" lon="3.46863">
        <ele>436.4</ele>
        <time>2018-01-14T13:54:42Z</time>
      </trkpt>
      <trkpt lat="45.74555" lon="3.4687">
        <ele>436.3</ele>
        <time>2018-01-14T13:55:42Z</time>
      </trkpt>
      <trkpt lat="45.74547" lon="3.46874">
        <ele>436.3</ele>
        <time>2018-01-14T13:56:42Z</time>
      </trkpt>
      <trkpt lat="45.74533" lon="3.46869">
        <ele>436.4</ele>
        <time>2018-01-14T13:57:42Z</time>
      </trkpt>
      <trkpt lat="45.74485" lon="3.46839">
        <ele>437.8</ele>
        <time>2018-01-14T13:58:42Z</time>
      </trkpt>
      <trkpt lat="45.7445" lon="3.46807">
        <ele>442.2</ele>
        <time>2018-01-14T13:59:42Z</time>
      </trkpt>
      <trkpt lat="45.74441" lon="3.46794">
        <ele>443.1</ele>
        <time>2018-01-14T14:00:42Z</time>
      </trkpt>
      <trkpt lat="45.7443" lon="3.46786">
        <ele>443.9</ele>
        <time>2018-01-14T14:01:42Z</time>
      </trkpt>
      <trkpt lat="45.74413" lon="3.46774">
        <ele>446.4</ele>
        <time>2018-01-14T14:02:42Z</time>
      </trkpt>
      <trkpt lat="45.74402" lon="3.4678">
        <ele>445.7</ele>
        <time>2018-01-14T14:03:42Z</time>
      </trkpt>
      <trkpt lat="45.74382" lon="3.46785">
        <ele>445.4</ele>
        <time>2018-01-14T14:04:42Z</time>
      </trkpt>
      <trkpt lat="45.74366" lon="3.46783">
        <ele>445.8</ele>
        <time>2018-01-14T14:05:42Z</time>
      </trkpt>
      <trkpt lat="45.7433" lon="3.46776">
        <ele>446.3</ele>
        <time>2018-01-14T14:06:42Z</time>
      </trkpt>
      <trkpt lat="45.74305" lon="3.46772">
        <ele>445.2</ele>
        <time>2018-01-14T14:07:42Z</time>
      </trkpt>
      <trkpt lat="45.74288" lon="3.4677">
        <ele>444.1</ele>
        <time>2018-01-14T14:08:42Z</time>
      </trkpt>
      <trkpt lat="45.74266" lon="3.46766">
        <ele>443.1</ele>
        <time>2018-01-14T14:09:42Z</time>
      </trkpt>
      <trkpt lat="45.74254" lon="3.46764">
        <ele>442.7</ele>
        <time>2018-01-14T14:10:42Z</time>
      </trkpt>
      <trkpt lat="45.74224" lon="3.46762">
        <ele>441.8</ele>
        <time>2018-01-14T14:11:42Z</time>
      </trkpt>
      <trkpt lat="45.74201" lon="3.46762">
        <ele>441.9</ele>
        <time>2018-01-14T14:12:42Z</time>
      </trkpt>
      <trkpt lat="45.74188" lon="3.46765">
        <ele>441.9</ele>
        <time>2018-01-14T14:13:42Z</time>
      </trkpt>
      <trkpt lat="45.74182" lon="3.46776">
        <ele>442</ele>
        <time>2018-01-14T14:14:42Z</time>
      </trkpt>
      <trkpt lat="45.74178" lon="3.46795">
        <ele>442.2</ele>
        <time>2018-01-14T14:15:42Z</time>
      </trkpt>
      <trkpt lat="45.74176" lon="3.46814">
        <ele>442.6</ele>
        <time>2018-01-14T14:16:42Z</time>
      </trkpt>
      <trkpt lat="45.74189" lon="3.46825">
        <ele>442.4</ele>
        <time>2018-01-14T14:17:42Z</time>
      </trkpt>
      <trkpt lat="45.74203" lon="3.46843">
        <ele>443.1</ele>
        <time>2018-01-14T14:18:42Z</time>
      </trkpt>
      <trkpt lat="45.74204" lon="3.46857">
        <ele>443.2</ele>
        <time>2018-01-14T14:19:42Z</time>
      </trkpt>
      <trkpt lat="45.74197" lon="3.46883">
        <ele>444.1</ele>
        <time>2018-01-14T14:20:42Z</time>
      </trkpt>
      <trkpt lat="45.74158" lon="3.46998">
        <ele>455</ele>
        <time>2018-01-14T14:21:42Z</time>
      </trkpt>
      <trkpt lat="45.7415" lon="3.47024">
        <ele>460.5</ele>
        <time>2018-01-14T14:22:42Z</time>
      </trkpt>
      <trkpt lat="45.74141" lon="3.47069">
        <ele>463.5</ele>
        <time>2018-01-14T14:23:42Z</time>
      </trkpt>
      <trkpt lat="45.74127" lon="3.47117">
        <ele>468.3</ele>
        <time>2018-01-14T14:24:42Z</time>
      </trkpt>
      <trkpt lat="45.74119" lon="3.47147">
        <ele>469</ele>
        <time>2018-01-14T14:25:42Z</time>
      </trkpt>
      <trkpt lat="45.74118" lon="3.4717">
        <ele>472.4</ele>
        <time>2018-01-14T14:26:42Z</time>
      </trkpt>
      <trkpt lat="45.74121" lon="3.47199">
        <ele>473.4</ele>
        <time>2018-01-14T14:27:42Z</time>
      </trkpt>
      <trkpt lat="45.74128" lon="3.47231">
        <ele>474.7</ele>
        <time>2018-01-14T14:28:42Z</time>
      </trkpt>
      <trkpt lat="45.74126" lon="3.47265">
        <ele>480.7</ele>
        <time>2018-01-14T14:29:42Z</time>
      </trkpt>
      <trkpt lat="45.74119" lon="3.47309">
        <ele>483</ele>
        <time>2018-01-14T14:30:42Z</time>
      </trkpt>
      <trkpt lat="45.74095" lon="3.47346">
        <ele>488.6</ele>
        <time>2018-01-14T14:31:42Z</time>
      </trkpt>
      <trkpt lat="45.7408" lon="3.47372">
        <ele>488.9</ele>
        <time>2018-01-14T14:32:42Z</time>
      </trkpt>
      <trkpt lat="45.7407" lon="3.47395">
        <ele>490.4</ele>
        <time>2018-01-14T14:33:42Z</time>
      </trkpt>
      <trkpt lat="45.74067" lon="3.47418">
        <ele>493.9</ele>
        <time>2018-01-14T14:34:42Z</time>
      </trkpt>
      <trkpt lat="45.74071" lon="3.4746">
        <ele>494.5</ele>
        <time>2018-01-14T14:35:42Z</time>
      </trkpt>
      <trkpt lat="45.74068" lon="3.47487">
        <ele>495.9</ele>
        <time>2018-01-14T14:36:42Z</time>
      </trkpt>
      <trkpt lat="45.74045" lon="3.47524">
        <ele>499.7</ele>
        <time>2018-01-14T14:37:42Z</time>
      </trkpt>
      <trkpt lat="45.74031" lon="3.47551">
        <ele>500.8</ele>
        <time>2018-01-14T14:38:42Z</time>
      </trkpt>
      <trkpt lat="45.74032" lon="3.47572">
        <ele>501.8</ele>
        <time>2018-01-14T14:39:42Z</time>
      </trkpt>
      <trkpt lat="45.7404" lon="3.4761">
        <ele>509.7</ele>
        <time>2018-01-14T14:40:42Z</time>
      </trkpt>
      <trkpt lat="45.74047" lon="3.47651">
        <ele>512.4</ele>
        <time>2018-01-14T14:41:42Z</time>
      </trkpt>
      <trkpt lat="45.7404" lon="3.4769">
        <ele>519.5</ele>
        <time>2018-01-14T14:42:42Z</time>
      </trkpt>
      <trkpt lat="45.74009" lon="3.47735">
        <ele>522.1</ele>
        <time>2018-01-14T14:43:42Z</time>
      </trkpt>
      <trkpt lat="45.74001" lon="3.47761">
        <ele>524.7</ele>
        <time>2018-01-14T14:44:42Z</time>
      </trkpt>
      <trkpt lat="45.74" lon="3.47867">
        <ele>529.6</ele>
        <time>2018-01-14T14:45:42Z</time>
      </trkpt>
      <trkpt lat="45.74002" lon="3.47929">
        <ele>532.4</ele>
        <time>2018-01-14T14:46:42Z</time>
      </trkpt>
      <trkpt lat="45.74014" lon="3.48033">
        <ele>534.5</ele>
        <time>2018-01-14T14:47:42Z</time>
      </trkpt>
      <trkpt lat="45.74014" lon="3.48053">
        <ele>534.5</ele>
        <time>2018-01-14T14:48:42Z</time>
      </trkpt>
      <trkpt lat="45.74006" lon="3.48129">
        <ele>533.5</ele>
        <time>2018-01-14T14:49:42Z</time>
      </trkpt>
      <trkpt lat="45.74001" lon="3.48177">
        <ele>532.6</ele>
        <time>2018-01-14T14:50:42Z</time>
      </trkpt>
      <trkpt lat="45.74031" lon="3.48193">
        <ele>532.1</ele>
        <time>2018-01-14T14:51:42Z</time>
      </trkpt>
      <trkpt lat="45.74123" lon="3.48229">
        <ele>533.8</ele>
        <time>2018-01-14T14:52:42Z</time>
      </trkpt>
      <trkpt lat="45.74147" lon="3.48234">
        <ele>534.6</ele>
        <time>2018-01-14T14:53:42Z</time>
      </trkpt>
      <trkpt lat="45.74166" lon="3.48233">
        <ele>535.2</ele>
        <time>2018-01-14T14:54:42Z</time>
      </trkpt>
      <trkpt lat="45.74218" lon="3.48217">
        <ele>531.7</ele>
        <time>2018-01-14T14:55:42Z</time>
      </trkpt>
      <trkpt lat="45.74243" lon="3.48215">
        <ele>531.2</ele>
        <time>2018-01-14T14:56:42Z</time>
      </trkpt>
      <trkpt lat="45.7426" lon="3.48221">
        <ele>527.6</ele>
        <time>2018-01-14T14:57:42Z</time>
      </trkpt>
      <trkpt lat="45.74292" lon="3.48245">
        <ele>526.6</ele>
        <time>2018-01-14T14:58:42Z</time>
      </trkpt>
      <trkpt lat="45.74318" lon="3.48261">
        <ele>527.8</ele>
        <time>2018-01-14T14:59:42Z</time>
      </trkpt>
      <trkpt lat="45.74337" lon="3.48268">
        <ele>524.3</ele>
        <time>2018-01-14T15:00:42Z</time>
      </trkpt>
      <trkpt lat="45.7437" lon="3.48268">
        <ele>523.8</ele>
        <time>2018-01-14T15:01:42Z</time>
      </trkpt>
      <trkpt lat="45.744" lon="3.48272">
        <ele>522.8</ele>
        <time>2018-01-14T15:02:42Z</time>
      </trkpt>
      <trkpt lat="45.74415" lon="3.48279">
        <ele>522.8</ele>
        <time>2018-01-14T15:03:42Z</time>
      </trkpt>
      <trkpt lat="45.74442" lon="3.48309">
        <ele>519.8</ele>
        <time>2018-01-14T15:04:42Z</time>
      </trkpt>
      <trkpt lat="45.74483" lon="3.48349">
        <ele>517.9</ele>
        <time>2018-01-14T15:05:42Z</time>
      </trkpt>
      <trkpt lat="45.74504" lon="3.4837">
        <ele>511.7</ele>
        <time>2018-01-14T15:06:42Z</time>
      </trkpt>
      <trkpt lat="45.74512" lon="3.48397">
        <ele>510.3</ele>
        <time>2018-01-14T15:07:42Z</time>
      </trkpt>
      <trkpt lat="45.7452" lon="3.48434">
        <ele>505.4</ele>
        <time>2018-01-14T15:08:42Z</time>
      </trkpt>
      <trkpt lat="45.74527" lon="3.48482">
        <ele>502.3</ele>
        <time>2018-01-14T15:09:42Z</time>
      </trkpt>
      <trkpt lat="45.74526" lon="3.48506">
        <ele>496.9</ele>
        <time>2018-01-14T15:10:42Z</time>
      </trkpt>
      <trkpt lat="45.74523" lon="3.48521">
        <ele>496.1</ele>
        <time>2018-01-14T15:11:42Z</time>
      </trkpt>
      <trkpt lat="45.74507" lon="3.48557">
        <ele>494</ele>
        <time>2018-01-14T15:12:42Z</time>
      </trkpt>
      <trkpt lat="45.74487" lon="3.48592">
        <ele>492.7</ele>
        <time>2018-01-14T15:13:42Z</time>
      </trkpt>
      <trkpt lat="45.74476" lon="3.4862">
        <ele>491.6</ele>
        <time>2018-01-14T15:14:42Z</time>
      </trkpt>
      <trkpt lat="45.74474" lon="3.48643">
        <ele>490</ele>
        <time>2018-01-14T15:15:42Z</time>
      </trkpt>
      <trkpt lat="45.74476" lon="3.48661">
        <ele>488.7</ele>
        <time>2018-01-14T15:16:42Z</time>
      </trkpt>
      <trkpt lat="45.74484" lon="3.48701">
        <ele>481.9</ele>
        <time>2018-01-14T15:17:42Z</time>
      </trkpt>
      <trkpt lat="45.74491" lon="3.48734">
        <ele>479.1</ele>
        <time>2018-01-14T15:18:42Z</time>
      </trkpt>
      <trkpt lat="45.74497" lon="3.48776">
        <ele>474.8</ele>
        <time>2018-01-14T15:19:42Z</time>
      </trkpt>
      <trkpt lat="45.74438" lon="3.48764">
        <ele>476.4</ele>
        <time>2018-01-14T15:20:42Z</time>
      </trkpt>
      <trkpt lat="45.74416" lon="3.48754">
        <ele>479.5</ele>
        <time>2018-01-14T15:21:42Z</time>
      </trkpt>
      <trkpt lat="45.74395" lon="3.48749">
        <ele>482.3</ele>
        <time>2018-01-14T15:22:42Z</time>
      </trkpt>
      <trkpt lat="45.74368" lon="3.48739">
        <ele>483</ele>
        <time>2018-01-14T15:23:42Z</time>
      </trkpt>
      <trkpt lat="45.74357" lon="3.48734">
        <ele>483</ele>
        <time>2018-01-14T15:24:42Z</time>
      </trkpt>
      <trkpt lat="45.74347" lon="3.4873">
        <ele>482.9</ele>
        <time>2018-01-14T15:25:42Z</time>
      </trkpt>
      <trkpt lat="45.74338" lon="3.48733">
        <ele>482.4</ele>
        <time>2018-01-14T15:26:42Z</time>
      </trkpt>
      <trkpt lat="45.74324" lon="3.48751">
        <ele>480.8</ele>
        <time>2018-01-14T15:27:42Z</time>
      </trkpt>
      <trkpt lat="45.74322" lon="3.48762">
        <ele>481.2</ele>
        <time>2018-01-14T15:28:42Z</time>
      </trkpt>
      <trkpt lat="45.74323" lon="3.48776">
        <ele>481.5</ele>
        <time>2018-01-14T15:29:42Z</time>
      </trkpt>
      <trkpt lat="45.74342" lon="3.4882">
        <ele>476.9</ele>
        <time>2018-01-14T15:30:42Z</time>
      </trkpt>
      <trkpt lat="45.74356" lon="3.48857">
        <ele>473.7</ele>
        <time>2018-01-14T15:31:42Z</time>
      </trkpt>
      <trkpt lat="45.74363" lon="3.48887">
        <ele>472.8</ele>
        <time>2018-01-14T15:32:42Z</time>
      </trkpt>
      <trkpt lat="45.74366" lon="3.48926">
        <ele>471.1</ele>
        <time>2018-01-14T15:33:42Z</time>
      </trkpt>
      <trkpt lat="45.74368" lon="3.48962">
        <ele>470.5</ele>
        <time>2018-01-14T15:34:42Z</time>
      </trkpt>
      <trkpt lat="45.74368" lon="3.48991">
        <ele>470.4</ele>
        <time>2018-01-14T15:35:42Z</time>
      </trkpt>
      <trkpt lat="45.74363" lon="3.49027">
        <ele>469.6</ele>
        <time>2018-01-14T15:36:42Z</time>
      </trkpt>
      <trkpt lat="45.74357" lon="3.49051">
        <ele>469.6</ele>
        <time>2018-01-14T15:37:42Z</time>
      </trkpt>
      <trkpt lat="45.74349" lon="3.49064">
        <ele>469.8</ele>
        <time>2018-01-14T15:38:42Z</time>
      </trkpt>
      <trkpt lat="45.74332" lon="3.49082">
        <ele>471.2</ele>
        <time>2018-01-14T15:39:42Z</time>
      </trkpt>
      <trkpt lat="45.74318" lon="3.49112">
        <ele>474</ele>
        <time>2018-01-14T15:40:42Z</time>
      </trkpt>
      <trkpt lat="45.7431" lon="3.49127">
        <ele>474.8</ele>
        <time>2018-01-14T15:41:42Z</time>
      </trkpt>
      <trkpt lat="45.74295" lon="3.49159">
        <ele>475.8</ele>
        <time>2018-01-14T15:42:42Z</time>
      </trkpt>
      <trkpt lat="45.74286" lon="3.49197">
        <ele>480.8</ele>
        <time>2018-01-14T15:43:42Z</time>
      </trkpt>
      <trkpt lat="45.74282" lon="3.49226">
        <ele>482.2</ele>
        <time>2018-01-14T15:44:42Z</time>
      </trkpt>
      <trkpt lat="45.7428" lon="3.49265">
        <ele>486.4</ele>
        <time>2018-01-14T15:45:42Z</time>
      </trkpt>
      <trkpt lat="45.74279" lon="3.49286">
        <ele>486.9</ele>
        <time>2018-01-14T15:46:42Z</time>
      </trkpt>
      <trkpt lat="45.74274" lon="3.49317">
        <ele>488</ele>
        <time>2018-01-14T15:47:42Z</time>
      </trkpt>
      <trkpt lat="45.74273" lon="3.4934">
        <ele>490.3</ele>
        <time>2018-01-14T15:48:42Z</time>
      </trkpt>
      <trkpt lat="45.74269" lon="3.49353">
        <ele>490.5</ele>
        <time>2018-01-14T15:49:42Z</time>
      </trkpt>
      <trkpt lat="45.74256" lon="3.49347">
        <ele>490.8</ele>
        <time>2018-01-14T15:50:42Z</time>
      </trkpt>
      <trkpt lat="45.74227" lon="3.49347">
        <ele>493.6</ele>
        <time>2018-01-14T15:51:42Z</time>
      </trkpt>
      <trkpt lat="45.74177" lon="3.4935">
        <ele>495.1</ele>
        <time>2018-01-14T15:52:42Z</time>
      </trkpt>
      <trkpt lat="45.74135" lon="3.49356">
        <ele>497</ele>
        <time>2018-01-14T15:53:42Z</time>
      </trkpt>
      <trkpt lat="45.74108" lon="3.4938">
        <ele>497.7</ele>
        <time>2018-01-14T15:54:42Z</time>
      </trkpt>
      <trkpt lat="45.74086" lon="3.49408">
        <ele>499.2</ele>
        <time>2018-01-14T15:55:42Z</time>
      </trkpt>
      <trkpt lat="45.74074" lon="3.49422">
        <ele>499.7</ele>
        <time>2018-01-14T15:56:42Z</time>
      </trkpt>
      <trkpt lat="45.74062" lon="3.49428">
        <ele>499.4</ele>
        <time>2018-01-14T15:57:42Z</time>
      </trkpt>
      <trkpt lat="45.74028" lon="3.4943">
        <ele>499.6</ele>
        <time>2018-01-14T15:58:42Z</time>
      </trkpt>
      <trkpt lat="45.74004" lon="3.49439">
        <ele>499.8</ele>
        <time>2018-01-14T15:59:42Z</time>
      </trkpt>
      <trkpt lat="45.73975" lon="3.49456">
        <ele>499.8</ele>
        <time>2018-01-14T16:00:42Z</time>
      </trkpt>
      <trkpt lat="45.73917" lon="3.49493">
        <ele>497.7</ele>
        <time>2018-01-14T16:01:42Z</time>
      </trkpt>
      <trkpt lat="45.73847" lon="3.4954">
        <ele>496</ele>
        <time>2018-01-14T16:02:42Z</time>
      </trkpt>
      <trkpt lat="45.73755" lon="3.49605">
        <ele>492.6</ele>
        <time>2018-01-14T16:03:42Z</time>
      </trkpt>
      <trkpt lat="45.73731" lon="3.49623">
        <ele>490.2</ele>
        <time>2018-01-14T16:04:42Z</time>
      </trkpt>
      <trkpt lat="45.73715" lon="3.4963">
        <ele>489.5</ele>
        <time>2018-01-14T16:05:42Z</time>
      </trkpt>
      <trkpt lat="45.73688" lon="3.49641">
        <ele>488.1</ele>
        <time>2018-01-14T16:06:42Z</time>
      </trkpt>
      <trkpt lat="45.7365" lon="3.49651">
        <ele>483.3</ele>
        <time>2018-01-14T16:07:42Z</time>
      </trkpt>
      <trkpt lat="45.73568" lon="3.49677">
        <ele>475.1</ele>
        <time>2018-01-14T16:08:42Z</time>
      </trkpt>
      <trkpt lat="45.73561" lon="3.49692">
        <ele>474.2</ele>
        <time>2018-01-14T16:09:42Z</time>
      </trkpt>
      <trkpt lat="45.73554" lon="3.49739">
        <ele>473</ele>
        <time>2018-01-14T16:10:42Z</time>
      </trkpt>
      <trkpt lat="45.7355" lon="3.49774">
        <ele>469</ele>
        <time>2018-01-14T16:11:42Z</time>
      </trkpt>
      <trkpt lat="45.73548" lon="3.49799">
        <ele>467.8</ele>
        <time>2018-01-14T16:12:42Z</time>
      </trkpt>
      <trkpt lat="45.73554" lon="3.49812">
        <ele>466.9</ele>
        <time>2018-01-14T16:13:42Z</time>
      </trkpt>
      <trkpt lat="45.7359" lon="3.49843">
        <ele>460.6</ele>
        <time>2018-01-14T16:14:42Z</time>
      </trkpt>
      <trkpt lat="45.73635" lon="3.4988">
        <ele>458</ele>
        <time>2018-01-14T16:15:42Z</time>
      </trkpt>
      <trkpt lat="45.73655" lon="3.49901">
        <ele>456.4</ele>
        <time>2018-01-14T16:16:42Z</time>
      </trkpt>
      <trkpt lat="45.73662" lon="3.49913">
        <ele>454.9</ele>
        <time>2018-01-14T16:17:42Z</time>
      </trkpt>
      <trkpt lat="45.73671" lon="3.49935">
        <ele>451.5</ele>
        <time>2018-01-14T16:18:42Z</time>
      </trkpt>
      <trkpt lat="45.73678" lon="3.4996">
        <ele>449</ele>
        <time>2018-01-14T16:19:42Z</time>
      </trkpt>
      <trkpt lat="45.73689" lon="3.49972">
        <ele>448.3</ele>
        <time>2018-01-14T16:20:42Z</time>
      </trkpt>
      <trkpt lat="45.73709" lon="3.4997">
        <ele>449.1</ele>
        <time>2018-01-14T16:21:42Z</time>
      </trkpt>
      <trkpt lat="45.73726" lon="3.49974">
        <ele>449.3</ele>
        <time>2018-01-14T16:22:42Z</time>
      </trkpt>
      <trkpt lat="45.73732" lon="3.49984">
        <ele>448.9</ele>
        <time>2018-01-14T16:23:42Z</time>
      </trkpt>
      <trkpt lat="45.73735" lon="3.50007">
        <ele>445.9</ele>
        <time>2018-01-14T16:24:42Z</time>
      </trkpt>
      <trkpt lat="45.73737" lon="3.5004">
        <ele>444.7</ele>
        <time>2018-01-14T16:25:42Z</time>
      </trkpt>
      <trkpt lat="45.73745" lon="3.50079">
        <ele>446.1</ele>
        <time>2018-01-14T16:26:42Z</time>
      </trkpt>
      <trkpt lat="45.73756" lon="3.50124">
        <ele>448</ele>
        <time>2018-01-14T16:27:42Z</time>
      </trkpt>
      <trkpt lat="45.73761" lon="3.50163">
        <ele>445.9</ele>
        <time>2018-01-14T16:28:42Z</time>
      </trkpt>
      <trkpt lat="45.73761" lon="3.50196">
        <ele>446.1</ele>
        <time>2018-01-14T16:29:42Z</time>
      </trkpt>
      <trkpt lat="45.73757" lon="3.50212">
        <ele>446.1</ele>
        <time>2018-01-14T16:30:42Z</time>
      </trkpt>
      <trkpt lat="45.73744" lon="3.50227">
        <ele>444.6</ele>
        <time>2018-01-14T16:31:42Z</time>
      </trkpt>
      <trkpt lat="45.73731" lon="3.50233">
        <ele>444.7</ele>
        <time>2018-01-14T16:32:42Z</time>
      </trkpt>
      <trkpt lat="45.73714" lon="3.50231">
        <ele>444.8</ele>
        <time>2018-01-14T16:33:42Z</time>
      </trkpt>
      <trkpt lat="45.73681" lon="3.50218">
        <ele>444.7</ele>
        <time>2018-01-14T16:34:42Z</time>
      </trkpt>
      <trkpt lat="45.73653" lon="3.50212">
        <ele>444.6</ele>
        <time>2018-01-14T16:35:42Z</time>
      </trkpt>
      <trkpt lat="45.73631" lon="3.50209">
        <ele>444.5</ele>
        <time>2018-01-14T16:36:42Z</time>
      </trkpt>
      <trkpt lat="45.73608" lon="3.50215">
        <ele>444.9</ele>
        <time>2018-01-14T16:37:42Z</time>
      </trkpt>
      <trkpt lat="45.73555" lon="3.50242">
        <ele>445.2</ele>
        <time>2018-01-14T16:38:42Z</time>
      </trkpt>
      <trkpt lat="45.73532" lon="3.50254">
        <ele>447.4</ele>
        <time>2018-01-14T16:39:42Z</time>
      </trkpt>
      <trkpt lat="45.73523" lon="3.50268">
        <ele>447.4</ele>
        <time>2018-01-14T16:40:42Z</time>
      </trkpt>
      <trkpt lat="45.73499" lon="3.50313">
        <ele>447.7</ele>
        <time>2018-01-14T16:41:42Z</time>
      </trkpt>
      <trkpt lat="45.73491" lon="3.50333">
        <ele>447.9</ele>
        <time>2018-01-14T16:42:42Z</time>
      </trkpt>
      <trkpt lat="45.73479" lon="3.50338">
        <ele>446.6</ele>
        <time>2018-01-14T16:43:42Z</time>
      </trkpt>
      <trkpt lat="45.73463" lon="3.50345">
        <ele>446.1</ele>
        <time>2018-01-14T16:44:42Z</time>
      </trkpt>
      <trkpt lat="45.73459" lon="3.50355">
        <ele>445.8</ele>
        <time>2018-01-14T16:45:42Z</time>
      </trkpt>
      <trkpt lat="45.73462" lon="3.50374">
        <ele>445.1</ele>
        <time>2018-01-14T16:46:42Z</time>
      </trkpt>
      <trkpt lat="45.73467" lon="3.50403">
        <ele>444.2</ele>
        <time>2018-01-14T16:47:42Z</time>
      </trkpt>
      <trkpt lat="45.73469" lon="3.50424">
        <ele>441.5</ele>
        <time>2018-01-14T16:48:42Z</time>
      </trkpt>
      <trkpt lat="45.73471" lon="3.50445">
        <ele>441.4</ele>
        <time>2018-01-14T16:49:42Z</time>
      </trkpt>
      <trkpt lat="45.73494" lon="3.50453">
        <ele>441.9</ele>
        <time>2018-01-14T16:50:42Z</time>
      </trkpt>
      <trkpt lat="45.73519" lon="3.50457">
        <ele>447.2</ele>
        <time>2018-01-14T16:51:42Z</time>
      </trkpt>
      <trkpt lat="45.73541" lon="3.50468">
        <ele>448.2</ele>
        <time>2018-01-14T16:52:42Z</time>
      </trkpt>
      <trkpt lat="45.73559" lon="3.50479">
        <ele>449.4</ele>
        <time>2018-01-14T16:53:42Z</time>
      </trkpt>
      <trkpt lat="45.73577" lon="3.50494">
        <ele>451.6</ele>
        <time>2018-01-14T16:54:42Z</time>
      </trkpt>
      <trkpt lat="45.73592" lon="3.50505">
        <ele>453.9</ele>
        <time>2018-01-14T16:55:42Z</time>
      </trkpt>
      <trkpt lat="45.73644" lon="3.50536">
        <ele>455.9</ele>
        <time>2018-01-14T16:56:42Z</time>
      </trkpt>
      <trkpt lat="45.73675" lon="3.50583">
        <ele>457.8</ele>
        <time>2018-01-14T16:57:42Z</time>
      </trkpt>
      <trkpt lat="45.73696" lon="3.50616">
        <ele>458.8</ele>
        <time>2018-01-14T16:58:42Z</time>
      </trkpt>
      <trkpt lat="45.7375" lon="3.50672">
        <ele>460.6</ele>
        <time>2018-01-14T16:59:42Z</time>
      </trkpt>
      <trkpt lat="45.73815" lon="3.50747">
        <ele>461.9</ele>
        <time>2018-01-14T17:00:42Z</time>
      </trkpt>
      <trkpt lat="45.73892" lon="3.50834">
        <ele>465.6</ele>
        <time>2018-01-14T17:01:42Z</time>
      </trkpt>
      <trkpt lat="45.73893" lon="3.50844">
        <ele>465.7</ele>
        <time>2018-01-14T17:02:42Z</time>
      </trkpt>
      <trkpt lat="45.73887" lon="3.50865">
        <ele>466.1</ele>
        <time>2018-01-14T17:03:42Z</time>
      </trkpt>
      <trkpt lat="45.7387" lon="3.50906">
        <ele>466.7</ele>
        <time>2018-01-14T17:04:42Z</time>
      </trkpt>
      <trkpt lat="45.7385" lon="3.50946">
        <ele>469.6</ele>
        <time>2018-01-14T17:05:42Z</time>
      </trkpt>
      <trkpt lat="45.73824" lon="3.50988">
        <ele>471</ele>
        <time>2018-01-14T17:06:42Z</time>
      </trkpt>
      <trkpt lat="45.73796" lon="3.51029">
        <ele>474.4</ele>
        <time>2018-01-14T17:07:42Z</time>
      </trkpt>
      <trkpt lat="45.73772" lon="3.51064">
        <ele>475.5</ele>
        <time>2018-01-14T17:08:42Z</time>
      </trkpt>
      <trkpt lat="45.73753" lon="3.51087">
        <ele>477</ele>
        <time>2018-01-14T17:09:42Z</time>
      </trkpt>
      <trkpt lat="45.73726" lon="3.51116">
        <ele>475.2</ele>
        <time>2018-01-14T17:10:42Z</time>
      </trkpt>
      <trkpt lat="45.73701" lon="3.5114">
        <ele>474.5</ele>
        <time>2018-01-14T17:11:42Z</time>
      </trkpt>
      <trkpt lat="45.73659" lon="3.51171">
        <ele>472.2</ele>
        <time>2018-01-14T17:12:42Z</time>
      </trkpt>
      <trkpt lat="45.73625" lon="3.51196">
        <ele>470.7</ele>
        <time>2018-01-14T17:13:42Z</time>
      </trkpt>
      <trkpt lat="45.73615" lon="3.51207">
        <ele>470.6</ele>
        <time>2018-01-14T17:14:42Z</time>
      </trkpt>
      <trkpt lat="45.73603" lon="3.51226">
        <ele>470.5</ele>
        <time>2018-01-14T17:15:42Z</time>
      </trkpt>
      <trkpt lat="45.73605" lon="3.51242">
        <ele>470.5</ele>
        <time>2018-01-14T17:16:42Z</time>
      </trkpt>
      <trkpt lat="45.73614" lon="3.51248">
        <ele>470.2</ele>
        <time>2018-01-14T17:17:42Z</time>
      </trkpt>
      <trkpt lat="45.73663" lon="3.5124">
        <ele>468.3</ele>
        <time>2018-01-14T17:18:42Z</time>
      </trkpt>
      <trkpt lat="45.73714" lon="3.51244">
        <ele>471.3</ele>
        <time>2018-01-14T17:19:42Z</time>
      </trkpt>
      <trkpt lat="45.73734" lon="3.51251">
        <ele>469.2</ele>
        <time>2018-01-14T17:20:42Z</time>
      </trkpt>
      <trkpt lat="45.7377" lon="3.51271">
        <ele>471.9</ele>
        <time>2018-01-14T17:21:42Z</time>
      </trkpt>
      <trkpt lat="45.73838" lon="3.51297">
        <ele>477.6</ele>
        <time>2018-01-14T17:22:42Z</time>
      </trkpt>
      <trkpt lat="45.73906" lon="3.51324">
        <ele>478.8</ele>
        <time>2018-01-14T17:23:42Z</time>
      </trkpt>
      <trkpt lat="45.73925" lon="3.51328">
        <ele>479.6</ele>
        <time>2018-01-14T17:24:42Z</time>
      </trkpt>
      <trkpt lat="45.73971" lon="3.51314">
        <ele>480.5</ele>
        <time>2018-01-14T17:25:42Z</time>
      </trkpt>
      <trkpt lat="45.73971" lon="3.51344">
        <ele>478.2</ele>
        <time>2018-01-14T17:26:42Z</time>
      </trkpt>
      <trkpt lat="45.73966" lon="3.51424">
        <ele>474.6</ele>
        <time>2018-01-14T17:27:42Z</time>
      </trkpt>
      <trkpt lat="45.73963" lon="3.51467">
        <ele>473.7</ele>
        <time>2018-01-14T17:28:42Z</time>
      </trkpt>
      <trkpt lat="45.7396" lon="3.51496">
        <ele>473.3</ele>
        <time>2018-01-14T17:29:42Z</time>
      </trkpt>
      <trkpt lat="45.7395" lon="3.5157">
        <ele>470.4</ele>
        <time>2018-01-14T17:30:42Z</time>
      </trkpt>
      <trkpt lat="45.7394" lon="3.51648">
        <ele>469.3</ele>
        <time>2018-01-14T17:31:42Z</time>
      </trkpt>
      <trkpt lat="45.73924" lon="3.51731">
        <ele>467.1</ele>
        <time>2018-01-14T17:32:42Z</time>
      </trkpt>
      <trkpt lat="45.73893" lon="3.51869">
        <ele>460</ele>
        <time>2018-01-14T17:33:42Z</time>
      </trkpt>
      <trkpt lat="45.73872" lon="3.51941">
        <ele>459.3</ele>
        <time>2018-01-14T17:34:42Z</time>
      </trkpt>
      <trkpt lat="45.73856" lon="3.51986">
        <ele>458.4</ele>
        <time>2018-01-14T17:35:42Z</time>
      </trkpt>
      <trkpt lat="45.73847" lon="3.5201">
        <ele>456.5</ele>
        <time>2018-01-14T17:36:42Z</time>
      </trkpt>
      <trkpt lat="45.73831" lon="3.52029">
        <ele>453</ele>
        <time>2018-01-14T17:37:42Z</time>
      </trkpt>
      <trkpt lat="45.73826" lon="3.5204">
        <ele>452.4</ele>
        <time>2018-01-14T17:38:42Z</time>
      </trkpt>
      <trkpt lat="45.73826" lon="3.52049">
        <ele>452.3</ele>
        <time>2018-01-14T17:39:42Z</time>
      </trkpt>
      <trkpt lat="45.73854" lon="3.52057">
        <ele>455.5</ele>
        <time>2018-01-14T17:40:42Z</time>
      </trkpt>
      <trkpt lat="45.73905" lon="3.52064">
        <ele>454</ele>
        <time>2018-01-14T17:41:42Z</time>
      </trkpt>
      <trkpt lat="45.73946" lon="3.52063">
        <ele>453.3</ele>
        <time>2018-01-14T17:42:42Z</time>
      </trkpt>
      <trkpt lat="45.73985" lon="3.52066">
        <ele>451.3</ele>
        <time>2018-01-14T17:43:42Z</time>
      </trkpt>
      <trkpt lat="45.74011" lon="3.52067">
        <ele>450</ele>
        <time>2018-01-14T17:44:42Z</time>
      </trkpt>
      <trkpt lat="45.74026" lon="3.52075">
        <ele>450.4</ele>
        <time>2018-01-14T17:45:42Z</time>
      </trkpt>
      <trkpt lat="45.74035" lon="3.52088">
        <ele>442.3</ele>
        <time>2018-01-14T17:46:42Z</time>
      </trkpt>
      <trkpt lat="45.74044" lon="3.52108">
        <ele>441.2</ele>
        <time>2018-01-14T17:47:42Z</time>
      </trkpt>
      <trkpt lat="45.74052" lon="3.52126">
        <ele>439.9</ele>
        <time>2018-01-14T17:48:42Z</time>
      </trkpt>
      <trkpt lat="45.7406" lon="3.52149">
        <ele>438</ele>
        <time>2018-01-14T17:49:42Z</time>
      </trkpt>
      <trkpt lat="45.74073" lon="3.52174">
        <ele>431.2</ele>
        <time>2018-01-14T17:50:42Z</time>
      </trkpt>
      <trkpt lat="45.74091" lon="3.52196">
        <ele>431.5</ele>
        <time>2018-01-14T17:51:42Z</time>
      </trkpt>
      <trkpt lat="45.74105" lon="3.52215">
        <ele>430</ele>
        <time>2018-01-14T17:52:42Z</time>
      </trkpt>
      <trkpt lat="45.74108" lon="3.52226">
        <ele>429.2</ele>
        <time>2018-01-14T17:53:42Z</time>
      </trkpt>
      <trkpt lat="45.74105" lon="3.5226">
        <ele>420.8</ele>
        <time>2018-01-14T17:54:42Z</time>
      </trkpt>
      <trkpt lat="45.741" lon="3.52289">
        <ele>418.3</ele>
        <time>2018-01-14T17:55:42Z</time>
      </trkpt>
      <trkpt lat="45.74098" lon="3.52316">
        <ele>414.8</ele>
        <time>2018-01-14T17:56:42Z</time>
      </trkpt>
      <trkpt lat="45.741" lon="3.52337">
        <ele>408.4</ele>
        <time>2018-01-14T17:57:42Z</time>
      </trkpt>
      <trkpt lat="45.74109" lon="3.52366">
        <ele>407.4</ele>
        <time>2018-01-14T17:58:42Z</time>
      </trkpt>
      <trkpt lat="45.74123" lon="3.52391">
        <ele>406.7</ele>
        <time>2018-01-14T17:59:42Z</time>
      </trkpt>
      <trkpt lat="45.74147" lon="3.52415">
        <ele>406.9</ele>
        <time>2018-01-14T18:00:42Z</time>
      </trkpt>
      <trkpt lat="45.74176" lon="3.52437">
        <ele>402.4</ele>
        <time>2018-01-14T18:01:42Z</time>
      </trkpt>
      <trkpt lat="45.74191" lon="3.52446">
        <ele>400.8</ele>
        <time>2018-01-14T18:02:42Z</time>
      </trkpt>
      <trkpt lat="45.74208" lon="3.52447">
        <ele>400.3</ele>
        <time>2018-01-14T18:03:42Z</time>
      </trkpt>
      <trkpt lat="45.74239" lon="3.52433">
        <ele>400.5</ele>
        <time>2018-01-14T18:04:42Z</time>
      </trkpt>
      <trkpt lat="45.74249" lon="3.52421">
        <ele>400.8</ele>
        <time>2018-01-14T18:05:42Z</time>
      </trkpt>
      <trkpt lat="45.74252" lon="3.52413">
        <ele>400.7</ele>
        <time>2018-01-14T18:06:42Z</time>
      </trkpt>
      <trkpt lat="45.74256" lon="3.52374">
        <ele>400.6</ele>
        <time>2018-01-14T18:07:42Z</time>
      </trkpt>
      <trkpt lat="45.74255" lon="3.5233">
        <ele>406</ele>
        <time>2018-01-14T18:08:42Z</time>
      </trkpt>
      <trkpt lat="45.74256" lon="3.52297">
        <ele>406.7</ele>
        <time>2018-01-14T18:09:42Z</time>
      </trkpt>
      <trkpt lat="45.74262" lon="3.52267">
        <ele>408</ele>
        <time>2018-01-14T18:10:42Z</time>
      </trkpt>
      <trkpt lat="45.74266" lon="3.5226">
        <ele>408.2</ele>
        <time>2018-01-14T18:11:42Z</time>
      </trkpt>
      <trkpt lat="45.74276" lon="3.52261">
        <ele>407.8</ele>
        <time>2018-01-14T18:12:42Z</time>
      </trkpt>
      <trkpt lat="45.74285" lon="3.52268">
        <ele>407.3</ele>
        <time>2018-01-14T18:13:42Z</time>
      </trkpt>
      <trkpt lat="45.74292" lon="3.52289">
        <ele>406.4</ele>
        <time>2018-01-14T18:14:42Z</time>
      </trkpt>
      <trkpt lat="45.74307" lon="3.52302">
        <ele>405.3</ele>
        <time>2018-01-14T18:15:42Z</time>
      </trkpt>
      <trkpt lat="45.74319" lon="3.52317">
        <ele>403.4</ele>
        <time>2018-01-14T18:16:42Z</time>
      </trkpt>
      <trkpt lat="45.7433" lon="3.52334">
        <ele>399</ele>
        <time>2018-01-14T18:17:42Z</time>
      </trkpt>
      <trkpt lat="45.74341" lon="3.52353">
        <ele>396.9</ele>
        <time>2018-01-14T18:18:42Z</time>
      </trkpt>
      <trkpt lat="45.74368" lon="3.52362">
        <ele>396.2</ele>
        <time>2018-01-14T18:19:42Z</time>
      </trkpt>
      <trkpt lat="45.7438" lon="3.5237">
        <ele>395.9</ele>
        <time>2018-01-14T18:20:42Z</time>
      </trkpt>
      <trkpt lat="45.74388" lon="3.52387">
        <ele>394.9</ele>
        <time>2018-01-14T18:21:42Z</time>
      </trkpt>
      <trkpt lat="45.74402" lon="3.52407">
        <ele>393.2</ele>
        <time>2018-01-14T18:22:42Z</time>
      </trkpt>
      <trkpt lat="45.74418" lon="3.52423">
        <ele>390.6</ele>
        <time>2018-01-14T18:23:42Z</time>
      </trkpt>
      <trkpt lat="45.74432" lon="3.52428">
        <ele>390</ele>
        <time>2018-01-14T18:24:42Z</time>
      </trkpt>
      <trkpt lat="45.74455" lon="3.52425">
        <ele>390</ele>
        <time>2018-01-14T18:25:42Z</time>
      </trkpt>
      <trkpt lat="45.74468" lon="3.52421">
        <ele>390.2</ele>
        <time>2018-01-14T18:26:42Z</time>
      </trkpt>
      <trkpt lat="45.74489" lon="3.52428">
        <ele>390.8</ele>
        <time>2018-01-14T18:27:42Z</time>
      </trkpt>
      <trkpt lat="45.74508" lon="3.52438">
        <ele>394</ele>
        <time>2018-01-14T18:28:42Z</time>
      </trkpt>
      <trkpt lat="45.74517" lon="3.52453">
        <ele>394.4</ele>
        <time>2018-01-14T18:29:42Z</time>
      </trkpt>
      <trkpt lat="45.74519" lon="3.5247">
        <ele>394</ele>
        <time>2018-01-14T18:30:42Z</time>
      </trkpt>
      <trkpt lat="45.74522" lon="3.52493">
        <ele>393.2</ele>
        <time>2018-01-14T18:31:42Z</time>
      </trkpt>
      <trkpt lat="45.7453" lon="3.52523">
        <ele>392.4</ele>
        <time>2018-01-14T18:32:42Z</time>
      </trkpt>
      <trkpt lat="45.74546" lon="3.52546">
        <ele>393.2</ele>
        <time>2018-01-14T18:33:42Z</time>
      </trkpt>
      <trkpt lat="45.74568" lon="3.52571">
        <ele>394.4</ele>
        <time>2018-01-14T18:34:42Z</time>
      </trkpt>
      <trkpt lat="45.74592" lon="3.52597">
        <ele>395.4</ele>
        <time>2018-01-14T18:35:42Z</time>
      </trkpt>
      <trkpt lat="45.74617" lon="3.52624">
        <ele>394.7</ele>
        <time>2018-01-14T18:36:42Z</time>
      </trkpt>
      <trkpt lat="45.74631" lon="3.52642">
        <ele>394.5</ele>
        <time>2018-01-14T18:37:42Z</time>
      </trkpt>
      <trkpt lat="45.74646" lon="3.52669">
        <ele>385.8</ele>
        <time>2018-01-14T18:38:42Z</time>
      </trkpt>
      <trkpt lat="45.74664" lon="3.52682">
        <ele>386.8</ele>
        <time>2018-01-14T18:39:42Z</time>
      </trkpt>
      <trkpt lat="45.74688" lon="3.52696">
        <ele>385.4</ele>
        <time>2018-01-14T18:40:42Z</time>
      </trkpt>
      <trkpt lat="45.74711" lon="3.52707">
        <ele>384</ele>
        <time>2018-01-14T18:41:42Z</time>
      </trkpt>
      <trkpt lat="45.74704" lon="3.52682">
        <ele>386.8</ele>
        <time>2018-01-14T18:42:42Z</time>
      </trkpt>
      <trkpt lat="45.74701" lon="3.52641">
        <ele>397.6</ele>
        <time>2018-01-14T18:43:42Z</time>
      </trkpt>
      <trkpt lat="45.74701" lon="3.5262">
        <ele>398.5</ele>
        <time>2018-01-14T18:44:42Z</time>
      </trkpt>
      <trkpt lat="45.74701" lon="3.526">
        <ele>399.3</ele>
        <time>2018-01-14T18:45:42Z</time>
      </trkpt>
      <trkpt lat="45.74702" lon="3.52572">
        <ele>405</ele>
        <time>2018-01-14T18:46:42Z</time>
      </trkpt>
      <trkpt lat="45.74705" lon="3.52549">
        <ele>406.1</ele>
        <time>2018-01-14T18:47:42Z</time>
      </trkpt>
      <trkpt lat="45.7471" lon="3.52525">
        <ele>407.4</ele>
        <time>2018-01-14T18:48:42Z</time>
      </trkpt>
      <trkpt lat="45.74711" lon="3.52498">
        <ele>413.4</ele>
        <time>2018-01-14T18:49:42Z</time>
      </trkpt>
      <trkpt lat="45.74715" lon="3.52464">
        <ele>414.6</ele>
        <time>2018-01-14T18:50:42Z</time>
      </trkpt>
      <trkpt lat="45.74717" lon="3.52444">
        <ele>415.6</ele>
        <time>2018-01-14T18:51:42Z</time>
      </trkpt>
      <trkpt lat="45.74725" lon="3.52425">
        <ele>417</ele>
        <time>2018-01-14T18:52:42Z</time>
      </trkpt>
      <trkpt lat="45.74738" lon="3.52423">
        <ele>418.4</ele>
        <time>2018-01-14T18:53:42Z</time>
      </trkpt>
      <trkpt lat="45.7475" lon="3.52437">
        <ele>416.8</ele>
        <time>2018-01-14T18:54:42Z</time>
      </trkpt>
      <trkpt lat="45.74763" lon="3.52442">
        <ele>415.7</ele>
        <time>2018-01-14T18:55:42Z</time>
      </trkpt>
      <trkpt lat="45.74771" lon="3.52431">
        <ele>416.1</ele>
        <time>2018-01-14T18:56:42Z</time>
      </trkpt>
      <trkpt lat="45.74781" lon="3.52402">
        <ele>421.8</ele>
        <time>2018-01-14T18:57:42Z</time>
      </trkpt>
      <trkpt lat="45.74792" lon="3.52338">
        <ele>424.4</ele>
        <time>2018-01-14T18:58:42Z</time>
      </trkpt>
      <trkpt lat="45.74797" lon="3.52326">
        <ele>429.7</ele>
        <time>2018-01-14T18:59:42Z</time>
      </trkpt>
      <trkpt lat="45.74805" lon="3.52323">
        <ele>429.3</ele>
        <time>2018-01-14T19:00:42Z</time>
      </trkpt>
      <trkpt lat="45.74813" lon="3.52327">
        <ele>428.5</ele>
        <time>2018-01-14T19:01:42Z</time>
      </trkpt>
      <trkpt lat="45.74818" lon="3.52356">
        <ele>423.3</ele>
        <time>2018-01-14T19:02:42Z</time>
      </trkpt>
      <trkpt lat="45.74823" lon="3.524">
        <ele>419.3</ele>
        <time>2018-01-14T19:03:42Z</time>
      </trkpt>
      <trkpt lat="45.74827" lon="3.52427">
        <ele>414.3</ele>
        <time>2018-01-14T19:04:42Z</time>
      </trkpt>
      <trkpt lat="45.74834" lon="3.52448">
        <ele>413.4</ele>
        <time>2018-01-14T19:05:42Z</time>
      </trkpt>
      <trkpt lat="45.7484" lon="3.52472">
        <ele>411.1</ele>
        <time>2018-01-14T19:06:42Z</time>
      </trkpt>
      <trkpt lat="45.74852" lon="3.52499">
        <ele>409.3</ele>
        <time>2018-01-14T19:07:42Z</time>
      </trkpt>
      <trkpt lat="45.74879" lon="3.52537">
        <ele>400.4</ele>
        <time>2018-01-14T19:08:42Z</time>
      </trkpt>
      <trkpt lat="45.74887" lon="3.52546">
        <ele>399.6</ele>
        <time>2018-01-14T19:09:42Z</time>
      </trkpt>
      <trkpt lat="45.74905" lon="3.52566">
        <ele>396.4</ele>
        <time>2018-01-14T19:10:42Z</time>
      </trkpt>
      <trkpt lat="45.74929" lon="3.52589">
        <ele>389.9</ele>
        <time>2018-01-14T19:11:42Z</time>
      </trkpt>
      <trkpt lat="45.74938" lon="3.52598">
        <ele>389.4</ele>
        <time>2018-01-14T19:12:42Z</time>
      </trkpt>
      <trkpt lat="45.7495" lon="3.52611">
        <ele>388.9</ele>
        <time>2018-01-14T19:13:42Z</time>
      </trkpt>
      <trkpt lat="45.74971" lon="3.52636">
        <ele>388.1</ele>
        <time>2018-01-14T19:14:42Z</time>
      </trkpt>
      <trkpt lat="45.74993" lon="3.52665">
        <ele>387.2</ele>
        <time>2018-01-14T19:15:42Z</time>
      </trkpt>
      <trkpt lat="45.75024" lon="3.52716">
        <ele>383.6</ele>
        <time>2018-01-14T19:16:42Z</time>
      </trkpt>
      <trkpt lat="45.75039" lon="3.52738">
        <ele>382.9</ele>
        <time>2018-01-14T19:17:42Z</time>
      </trkpt>
      <trkpt lat="45.75061" lon="3.52744">
        <ele>382.9</ele>
        <time>2018-01-14T19:18:42Z</time>
      </trkpt>
      <trkpt lat="45.75099" lon="3.52747">
        <ele>383.7</ele>
        <time>2018-01-14T19:19:42Z</time>
      </trkpt>
      <trkpt lat="45.75177" lon="3.52769">
        <ele>374.8</ele>
        <time>2018-01-14T19:20:42Z</time>
      </trkpt>
      <trkpt lat="45.75195" lon="3.52769">
        <ele>373.3</ele>
        <time>2018-01-14T19:21:42Z</time>
      </trkpt>
      <trkpt lat="45.75213" lon="3.52755">
        <ele>372.7</ele>
        <time>2018-01-14T19:22:42Z</time>
      </trkpt>
      <trkpt lat="45.75228" lon="3.52742">
        <ele>378.2</ele>
        <time>2018-01-14T19:23:42Z</time>
      </trkpt>
      <trkpt lat="45.75244" lon="3.52737">
        <ele>376.5</ele>
        <time>2018-01-14T19:24:42Z</time>
      </trkpt>
      <trkpt lat="45.75278" lon="3.52767">
        <ele>369.6</ele>
        <time>2018-01-14T19:25:42Z</time>
      </trkpt>
      <trkpt lat="45.753" lon="3.52779">
        <ele>369.1</ele>
        <time>2018-01-14T19:26:42Z</time>
      </trkpt>
      <trkpt lat="45.75336" lon="3.52783">
        <ele>369.8</ele>
        <time>2018-01-14T19:27:42Z</time>
      </trkpt>
      <trkpt lat="45.75351" lon="3.52791">
        <ele>369.7</ele>
        <time>2018-01-14T19:28:42Z</time>
      </trkpt>
      <trkpt lat="45.75382" lon="3.52791">
        <ele>370.1</ele>
        <time>2018-01-14T19:29:42Z</time>
      </trkpt>
      <trkpt lat="45.75421" lon="3.52802">
        <ele>370.1</ele>
        <time>2018-01-14T19:30:42Z</time>
      </trkpt>
      <trkpt lat="45.75429" lon="3.52815">
        <ele>369.5</ele>
        <time>2018-01-14T19:31:42Z</time>
      </trkpt>
      <trkpt lat="45.75433" lon="3.52832">
        <ele>369.1</ele>
        <time>2018-01-14T19:32:42Z</time>
      </trkpt>
      <trkpt lat="45.75431" lon="3.52853">
        <ele>366</ele>
        <time>2018-01-14T19:33:42Z</time>
      </trkpt>
      <trkpt lat="45.75402" lon="3.5295">
        <ele>360.8</ele>
        <time>2018-01-14T19:34:42Z</time>
      </trkpt>
      <trkpt lat="45.75377" lon="3.5296">
        <ele>360.6</ele>
        <time>2018-01-14T19:35:42Z</time>
      </trkpt>
      <trkpt lat="45.75369" lon="3.53016">
        <ele>353.9</ele>
        <time>2018-01-14T19:36:42Z</time>
      </trkpt>
      <trkpt lat="45.75369" lon="3.53036">
        <ele>352.9</ele>
        <time>2018-01-14T19:37:42Z</time>
      </trkpt>
      <trkpt lat="45.75387" lon="3.53107">
        <ele>345.1</ele>
        <time>2018-01-14T19:38:42Z</time>
      </trkpt>
      <trkpt lat="45.7539" lon="3.53137">
        <ele>343.6</ele>
        <time>2018-01-14T19:39:42Z</time>
      </trkpt>
      <trkpt lat="45.75389" lon="3.53158">
        <ele>342.7</ele>
        <time>2018-01-14T19:40:42Z</time>
      </trkpt>
      <trkpt lat="45.7538" lon="3.53181">
        <ele>338.4</ele>
        <time>2018-01-14T19:41:42Z</time>
      </trkpt>
      <trkpt lat="45.75364" lon="3.53206">
        <ele>337.6</ele>
        <time>2018-01-14T19:42:42Z</time>
      </trkpt>
      <trkpt lat="45.75355" lon="3.5323">
        <ele>336.5</ele>
        <time>2018-01-14T19:43:42Z</time>
      </trkpt>
      <trkpt lat="45.75352" lon="3.53252">
        <ele>333.7</ele>
        <time>2018-01-14T19:44:42Z</time>
      </trkpt>
      <trkpt lat="45.75367" lon="3.53445">
        <ele>331.8</ele>
        <time>2018-01-14T19:45:42Z</time>
      </trkpt>
      <trkpt lat="45.75372" lon="3.53458">
        <ele>331.7</ele>
        <time>2018-01-14T19:46:42Z</time>
      </trkpt>
      <trkpt lat="45.75372" lon="3.53468">
        <ele>331.7</ele>
        <time>2018-01-14T19:47:42Z</time>
      </trkpt>
      <trkpt lat="45.75367" lon="3.53475">
        <ele>331.7</ele>
        <time>2018-01-14T19:48:42Z</time>
      </trkpt>
      <trkpt lat="45.75369" lon="3.53489">
        <ele>331.6</ele>
        <time>2018-01-14T19:49:42Z</time>
      </trkpt>
      <trkpt lat="45.75372" lon="3.53545">
        <ele>330.9</ele>
        <time>2018-01-14T19:50:42Z</time>
      </trkpt>
      <trkpt lat="45.75372" lon="3.53681">
        <ele>330</ele>
        <time>2018-01-14T19:51:42Z</time>
      </trkpt>
      <trkpt lat="45.75365" lon="3.53762">
        <ele>329.7</ele>
        <time>2018-01-14T19:52:42Z</time>
      </trkpt>
      <trkpt lat="45.75343" lon="3.53762">
        <ele>329.2</ele>
        <time>2018-01-14T19:53:42Z</time>
      </trkpt>
      <trkpt lat="45.75332" lon="3.53779">
        <ele>324.4</ele>
        <time>2018-01-14T19:54:42Z</time>
      </trkpt>
      <trkpt lat="45.75327" lon="3.53784">
        <ele>323.9</ele>
        <time>2018-01-14T19:55:42Z</time>
      </trkpt>
      <trkpt lat="45.75335" lon="3.53795">
        <ele>328.2</ele>
        <time>2018-01-14T19:56:42Z</time>
      </trkpt>
      <trkpt lat="45.75347" lon="3.53806">
        <ele>327.9</ele>
        <time>2018-01-14T19:57:42Z</time>
      </trkpt>
      <trkpt lat="45.75356" lon="3.53798">
        <ele>328.6</ele>
        <time>2018-01-14T19:58:42Z</time>
      </trkpt>
      <trkpt lat="45.7536" lon="3.53789">
        <ele>329.1</ele>
        <time>2018-01-14T19:59:42Z</time>
      </trkpt>
      <trkpt lat="45.7536" lon="3.5379">
        <ele>329</ele>
        <time>2018-01-14T06:46:34Z</time>
      </trkpt>
      <trkpt lat="45.7536" lon="3.5379">
        <ele>329</ele>
        <time>2018-01-14T06:46:34Z</time>
      </trkpt>
      <trkpt lat="45.75339" lon="3.53775">
        <ele>329</ele>
        <time>2018-01-14T06:47:34Z</time>
      </trkpt>
      <trkpt lat="45.75338" lon="3.53764">
        <ele>329.1</ele>
        <time>2018-01-14T06:48:34Z</time>
      </trkpt>
    </trkseg>
  </trk>
</gpx>